<?xml version="1.0" encoding="UTF-8" standalone="no" ?>
<gpx xmlns="http://www.topografix.com/GPX/1/1" xmlns:xsi="http://www.w3.org/2001/XMLSchema-instance" xsi:schemaLocation="http://www.topografix.com/GPX/1/1 http://www.topografix.com/GPX/1/1/gpx.xsd" version="1.1" creator="VisuGPX - https://www.visugpx.com">
  <metadata>
    <name>VTT Jouques</name>
    <desc><![CDATA[Aucune difficulté]]></desc>
  </metadata>
  <trk>
    <name><![CDATA[VTT - Jouques]]></name>
    <trkseg>
      <trkpt lat="43.63685" lon="5.638">
        <ele>269.39999389648</ele>
        <time>2013-01-05T08:36:26.000Z</time>
      </trkpt>
      <trkpt lat="43.63663" lon="5.63748">
        <ele>266.79998779297</ele>
        <time>2013-01-05T08:38:54.000Z</time>
      </trkpt>
      <trkpt lat="43.63656" lon="5.63684">
        <ele>269.79998779297</ele>
        <time>2013-01-05T08:39:06.000Z</time>
      </trkpt>
      <trkpt lat="43.6366" lon="5.63611">
        <ele>268</ele>
        <time>2013-01-05T08:39:17.000Z</time>
      </trkpt>
      <trkpt lat="43.63675" lon="5.63532">
        <ele>264</ele>
        <time>2013-01-05T08:39:26.000Z</time>
      </trkpt>
      <trkpt lat="43.63692" lon="5.63471">
        <ele>262.79998779297</ele>
        <time>2013-01-05T08:39:34.000Z</time>
      </trkpt>
      <trkpt lat="43.63709" lon="5.63414">
        <ele>261.79998779297</ele>
        <time>2013-01-05T08:39:43.000Z</time>
      </trkpt>
      <trkpt lat="43.6373" lon="5.6335">
        <ele>257.60000610352</ele>
        <time>2013-01-05T08:39:54.000Z</time>
      </trkpt>
      <trkpt lat="43.63761" lon="5.63303">
        <ele>255.80000305176</ele>
        <time>2013-01-05T08:40:03.000Z</time>
      </trkpt>
      <trkpt lat="43.63749" lon="5.63241">
        <ele>255.60000610352</ele>
        <time>2013-01-05T08:40:11.000Z</time>
      </trkpt>
      <trkpt lat="43.63736" lon="5.63179">
        <ele>259.20001220703</ele>
        <time>2013-01-05T08:40:19.000Z</time>
      </trkpt>
      <trkpt lat="43.63717" lon="5.63123">
        <ele>261.20001220703</ele>
        <time>2013-01-05T08:40:27.000Z</time>
      </trkpt>
      <trkpt lat="43.63686" lon="5.63071">
        <ele>260.60000610352</ele>
        <time>2013-01-05T08:40:38.000Z</time>
      </trkpt>
      <trkpt lat="43.63646" lon="5.6304">
        <ele>259.39999389648</ele>
        <time>2013-01-05T08:42:30.000Z</time>
      </trkpt>
      <trkpt lat="43.63641" lon="5.62986">
        <ele>259</ele>
        <time>2013-01-05T08:42:37.000Z</time>
      </trkpt>
      <trkpt lat="43.63675" lon="5.6294">
        <ele>256.20001220703</ele>
        <time>2013-01-05T08:42:42.000Z</time>
      </trkpt>
      <trkpt lat="43.63713" lon="5.62889">
        <ele>256.39999389648</ele>
        <time>2013-01-05T08:42:47.000Z</time>
      </trkpt>
      <trkpt lat="43.63751" lon="5.62839">
        <ele>255.80000305176</ele>
        <time>2013-01-05T08:42:52.000Z</time>
      </trkpt>
      <trkpt lat="43.63773" lon="5.62783">
        <ele>256.20001220703</ele>
        <time>2013-01-05T08:42:57.000Z</time>
      </trkpt>
      <trkpt lat="43.63793" lon="5.62728">
        <ele>258.39999389648</ele>
        <time>2013-01-05T08:43:07.000Z</time>
      </trkpt>
      <trkpt lat="43.6382" lon="5.62675">
        <ele>262.39999389648</ele>
        <time>2013-01-05T08:43:27.000Z</time>
      </trkpt>
      <trkpt lat="43.63855" lon="5.62629">
        <ele>266.39999389648</ele>
        <time>2013-01-05T08:43:48.000Z</time>
      </trkpt>
      <trkpt lat="43.63893" lon="5.62585">
        <ele>270.20001220703</ele>
        <time>2013-01-05T08:44:16.000Z</time>
      </trkpt>
      <trkpt lat="43.63939" lon="5.62576">
        <ele>273.79998779297</ele>
        <time>2013-01-05T08:44:37.000Z</time>
      </trkpt>
      <trkpt lat="43.63982" lon="5.62544">
        <ele>271.79998779297</ele>
        <time>2013-01-05T08:44:50.000Z</time>
      </trkpt>
      <trkpt lat="43.64005" lon="5.62499">
        <ele>268.39999389648</ele>
        <time>2013-01-05T08:45:03.000Z</time>
      </trkpt>
      <trkpt lat="43.64049" lon="5.62478">
        <ele>270.60000610352</ele>
        <time>2013-01-05T08:45:15.000Z</time>
      </trkpt>
      <trkpt lat="43.64093" lon="5.62458">
        <ele>272.20001220703</ele>
        <time>2013-01-05T08:45:28.000Z</time>
      </trkpt>
      <trkpt lat="43.64129" lon="5.6242">
        <ele>271</ele>
        <time>2013-01-05T08:45:40.000Z</time>
      </trkpt>
      <trkpt lat="43.64172" lon="5.62392">
        <ele>274.79998779297</ele>
        <time>2013-01-05T08:45:51.000Z</time>
      </trkpt>
      <trkpt lat="43.64219" lon="5.62389">
        <ele>271</ele>
        <time>2013-01-05T08:46:02.000Z</time>
      </trkpt>
      <trkpt lat="43.64264" lon="5.62363">
        <ele>266.60000610352</ele>
        <time>2013-01-05T08:46:13.000Z</time>
      </trkpt>
      <trkpt lat="43.64315" lon="5.62362">
        <ele>260.60000610352</ele>
        <time>2013-01-05T08:46:55.000Z</time>
      </trkpt>
      <trkpt lat="43.64368" lon="5.62368">
        <ele>257.79998779297</ele>
        <time>2013-01-05T08:47:18.000Z</time>
      </trkpt>
      <trkpt lat="43.64414" lon="5.6233">
        <ele>256</ele>
        <time>2013-01-05T08:47:33.000Z</time>
      </trkpt>
      <trkpt lat="43.64436" lon="5.6227">
        <ele>254.39999389648</ele>
        <time>2013-01-05T08:47:44.000Z</time>
      </trkpt>
      <trkpt lat="43.64456" lon="5.62213">
        <ele>252.60000610352</ele>
        <time>2013-01-05T08:47:57.000Z</time>
      </trkpt>
      <trkpt lat="43.64504" lon="5.6223">
        <ele>253.19999694824</ele>
        <time>2013-01-05T08:48:41.000Z</time>
      </trkpt>
      <trkpt lat="43.6455" lon="5.62253">
        <ele>250.39999389648</ele>
        <time>2013-01-05T08:48:48.000Z</time>
      </trkpt>
      <trkpt lat="43.64595" lon="5.62278">
        <ele>250.80000305176</ele>
        <time>2013-01-05T08:48:56.000Z</time>
      </trkpt>
      <trkpt lat="43.64642" lon="5.62288">
        <ele>252.80000305176</ele>
        <time>2013-01-05T08:49:05.000Z</time>
      </trkpt>
      <trkpt lat="43.64687" lon="5.62304">
        <ele>254.80000305176</ele>
        <time>2013-01-05T08:49:15.000Z</time>
      </trkpt>
      <trkpt lat="43.64727" lon="5.62337">
        <ele>257.20001220703</ele>
        <time>2013-01-05T08:49:27.000Z</time>
      </trkpt>
      <trkpt lat="43.64767" lon="5.62364">
        <ele>259.20001220703</ele>
        <time>2013-01-05T08:49:41.000Z</time>
      </trkpt>
      <trkpt lat="43.64801" lon="5.62406">
        <ele>261.39999389648</ele>
        <time>2013-01-05T08:50:01.000Z</time>
      </trkpt>
      <trkpt lat="43.64819" lon="5.62468">
        <ele>264.79998779297</ele>
        <time>2013-01-05T08:50:16.000Z</time>
      </trkpt>
      <trkpt lat="43.6484" lon="5.62528">
        <ele>269.39999389648</ele>
        <time>2013-01-05T08:50:29.000Z</time>
      </trkpt>
      <trkpt lat="43.64853" lon="5.62588">
        <ele>274</ele>
        <time>2013-01-05T08:50:45.000Z</time>
      </trkpt>
      <trkpt lat="43.64865" lon="5.62658">
        <ele>276.20001220703</ele>
        <time>2013-01-05T08:51:02.000Z</time>
      </trkpt>
      <trkpt lat="43.64865" lon="5.62721">
        <ele>276.79998779297</ele>
        <time>2013-01-05T08:51:16.000Z</time>
      </trkpt>
      <trkpt lat="43.64882" lon="5.62767">
        <ele>279</ele>
        <time>2013-01-05T08:51:29.000Z</time>
      </trkpt>
      <trkpt lat="43.64874" lon="5.62831">
        <ele>283.60000610352</ele>
        <time>2013-01-05T08:51:46.000Z</time>
      </trkpt>
      <trkpt lat="43.64868" lon="5.62892">
        <ele>287.79998779297</ele>
        <time>2013-01-05T08:52:03.000Z</time>
      </trkpt>
      <trkpt lat="43.64868" lon="5.62961">
        <ele>293.39999389648</ele>
        <time>2013-01-05T08:52:21.000Z</time>
      </trkpt>
      <trkpt lat="43.64865" lon="5.63031">
        <ele>298.60000610352</ele>
        <time>2013-01-05T08:52:38.000Z</time>
      </trkpt>
      <trkpt lat="43.6488" lon="5.63094">
        <ele>303.79998779297</ele>
        <time>2013-01-05T08:52:55.000Z</time>
      </trkpt>
      <trkpt lat="43.64906" lon="5.63152">
        <ele>305.20001220703</ele>
        <time>2013-01-05T08:53:24.000Z</time>
      </trkpt>
      <trkpt lat="43.64938" lon="5.63207">
        <ele>307</ele>
        <time>2013-01-05T08:53:37.000Z</time>
      </trkpt>
      <trkpt lat="43.64972" lon="5.63254">
        <ele>308.60000610352</ele>
        <time>2013-01-05T08:53:48.000Z</time>
      </trkpt>
      <trkpt lat="43.64995" lon="5.63309">
        <ele>307</ele>
        <time>2013-01-05T08:53:59.000Z</time>
      </trkpt>
      <trkpt lat="43.65008" lon="5.63371">
        <ele>305.20001220703</ele>
        <time>2013-01-05T08:54:11.000Z</time>
      </trkpt>
      <trkpt lat="43.65037" lon="5.63422">
        <ele>306.20001220703</ele>
        <time>2013-01-05T08:54:23.000Z</time>
      </trkpt>
      <trkpt lat="43.65073" lon="5.63454">
        <ele>307</ele>
        <time>2013-01-05T08:55:03.000Z</time>
      </trkpt>
      <trkpt lat="43.65112" lon="5.63492">
        <ele>309</ele>
        <time>2013-01-05T08:55:17.000Z</time>
      </trkpt>
      <trkpt lat="43.6515" lon="5.63532">
        <ele>311.39999389648</ele>
        <time>2013-01-05T08:55:35.000Z</time>
      </trkpt>
      <trkpt lat="43.65192" lon="5.63561">
        <ele>312.60000610352</ele>
        <time>2013-01-05T08:55:52.000Z</time>
      </trkpt>
      <trkpt lat="43.65241" lon="5.63572">
        <ele>314.60000610352</ele>
        <time>2013-01-05T08:56:15.000Z</time>
      </trkpt>
      <trkpt lat="43.65224" lon="5.63621">
        <ele>314</ele>
        <time>2013-01-05T08:56:43.000Z</time>
      </trkpt>
      <trkpt lat="43.65196" lon="5.63685">
        <ele>315.60000610352</ele>
        <time>2013-01-05T08:57:04.000Z</time>
      </trkpt>
      <trkpt lat="43.65172" lon="5.6375">
        <ele>319.60000610352</ele>
        <time>2013-01-05T08:57:26.000Z</time>
      </trkpt>
      <trkpt lat="43.65149" lon="5.63816">
        <ele>322.20001220703</ele>
        <time>2013-01-05T08:57:45.000Z</time>
      </trkpt>
      <trkpt lat="43.6512" lon="5.63874">
        <ele>325.20001220703</ele>
        <time>2013-01-05T08:58:03.000Z</time>
      </trkpt>
      <trkpt lat="43.65101" lon="5.63938">
        <ele>327.39999389648</ele>
        <time>2013-01-05T08:58:21.000Z</time>
      </trkpt>
      <trkpt lat="43.65101" lon="5.64007">
        <ele>328.60000610352</ele>
        <time>2013-01-05T08:58:37.000Z</time>
      </trkpt>
      <trkpt lat="43.65099" lon="5.6407">
        <ele>330.20001220703</ele>
        <time>2013-01-05T08:58:57.000Z</time>
      </trkpt>
      <trkpt lat="43.65132" lon="5.64105">
        <ele>330.39999389648</ele>
        <time>2013-01-05T08:59:12.000Z</time>
      </trkpt>
      <trkpt lat="43.65131" lon="5.6417">
        <ele>332.39999389648</ele>
        <time>2013-01-05T08:59:35.000Z</time>
      </trkpt>
      <trkpt lat="43.65128" lon="5.64238">
        <ele>336</ele>
        <time>2013-01-05T09:01:17.000Z</time>
      </trkpt>
      <trkpt lat="43.6516" lon="5.64286">
        <ele>334.39999389648</ele>
        <time>2013-01-05T09:01:30.000Z</time>
      </trkpt>
      <trkpt lat="43.65146" lon="5.64338">
        <ele>337.39999389648</ele>
        <time>2013-01-05T09:01:46.000Z</time>
      </trkpt>
      <trkpt lat="43.65103" lon="5.64363">
        <ele>342.60000610352</ele>
        <time>2013-01-05T09:02:00.000Z</time>
      </trkpt>
      <trkpt lat="43.65057" lon="5.64379">
        <ele>344.79998779297</ele>
        <time>2013-01-05T09:02:16.000Z</time>
      </trkpt>
      <trkpt lat="43.65051" lon="5.64441">
        <ele>343.20001220703</ele>
        <time>2013-01-05T09:02:52.000Z</time>
      </trkpt>
      <trkpt lat="43.65087" lon="5.6448">
        <ele>343.39999389648</ele>
        <time>2013-01-05T09:03:07.000Z</time>
      </trkpt>
      <trkpt lat="43.65137" lon="5.64473">
        <ele>339.79998779297</ele>
        <time>2013-01-05T09:03:18.000Z</time>
      </trkpt>
      <trkpt lat="43.65185" lon="5.64484">
        <ele>336.39999389648</ele>
        <time>2013-01-05T09:03:26.000Z</time>
      </trkpt>
      <trkpt lat="43.65228" lon="5.64511">
        <ele>333.79998779297</ele>
        <time>2013-01-05T09:03:34.000Z</time>
      </trkpt>
      <trkpt lat="43.65274" lon="5.64541">
        <ele>328.39999389648</ele>
        <time>2013-01-05T09:03:42.000Z</time>
      </trkpt>
      <trkpt lat="43.6532" lon="5.64559">
        <ele>324.60000610352</ele>
        <time>2013-01-05T09:03:50.000Z</time>
      </trkpt>
      <trkpt lat="43.65299" lon="5.64582">
        <ele>324.20001220703</ele>
        <time>2013-01-05T09:04:16.000Z</time>
      </trkpt>
      <trkpt lat="43.6527" lon="5.6461">
        <ele>325.79998779297</ele>
        <time>2013-01-05T09:04:28.000Z</time>
      </trkpt>
      <trkpt lat="43.65231" lon="5.64607">
        <ele>327.20001220703</ele>
        <time>2013-01-05T09:04:59.000Z</time>
      </trkpt>
      <trkpt lat="43.65187" lon="5.64624">
        <ele>328.79998779297</ele>
        <time>2013-01-05T09:05:12.000Z</time>
      </trkpt>
      <trkpt lat="43.65152" lon="5.64666">
        <ele>328</ele>
        <time>2013-01-05T09:05:25.000Z</time>
      </trkpt>
      <trkpt lat="43.65105" lon="5.64666">
        <ele>328.60000610352</ele>
        <time>2013-01-05T09:05:37.000Z</time>
      </trkpt>
      <trkpt lat="43.65058" lon="5.64652">
        <ele>329.60000610352</ele>
        <time>2013-01-05T09:05:48.000Z</time>
      </trkpt>
      <trkpt lat="43.6501" lon="5.64636">
        <ele>329.39999389648</ele>
        <time>2013-01-05T09:06:00.000Z</time>
      </trkpt>
      <trkpt lat="43.64964" lon="5.64616">
        <ele>327.79998779297</ele>
        <time>2013-01-05T09:06:12.000Z</time>
      </trkpt>
      <trkpt lat="43.64927" lon="5.64652">
        <ele>326</ele>
        <time>2013-01-05T09:06:27.000Z</time>
      </trkpt>
      <trkpt lat="43.64915" lon="5.64714">
        <ele>325.79998779297</ele>
        <time>2013-01-05T09:06:43.000Z</time>
      </trkpt>
      <trkpt lat="43.64921" lon="5.64779">
        <ele>329.39999389648</ele>
        <time>2013-01-05T09:07:01.000Z</time>
      </trkpt>
      <trkpt lat="43.64952" lon="5.64818">
        <ele>334</ele>
        <time>2013-01-05T09:07:16.000Z</time>
      </trkpt>
      <trkpt lat="43.64998" lon="5.64831">
        <ele>335.79998779297</ele>
        <time>2013-01-05T09:07:31.000Z</time>
      </trkpt>
      <trkpt lat="43.65039" lon="5.64874">
        <ele>336.39999389648</ele>
        <time>2013-01-05T09:07:52.000Z</time>
      </trkpt>
      <trkpt lat="43.65067" lon="5.64925">
        <ele>335.79998779297</ele>
        <time>2013-01-05T09:08:11.000Z</time>
      </trkpt>
      <trkpt lat="43.65073" lon="5.64986">
        <ele>336</ele>
        <time>2013-01-05T09:08:22.000Z</time>
      </trkpt>
      <trkpt lat="43.65044" lon="5.65036">
        <ele>338.39999389648</ele>
        <time>2013-01-05T09:08:42.000Z</time>
      </trkpt>
      <trkpt lat="43.65006" lon="5.6507">
        <ele>336.60000610352</ele>
        <time>2013-01-05T09:08:58.000Z</time>
      </trkpt>
      <trkpt lat="43.64982" lon="5.65124">
        <ele>338.39999389648</ele>
        <time>2013-01-05T09:09:11.000Z</time>
      </trkpt>
      <trkpt lat="43.64978" lon="5.65189">
        <ele>340.60000610352</ele>
        <time>2013-01-05T09:09:24.000Z</time>
      </trkpt>
      <trkpt lat="43.6499" lon="5.65254">
        <ele>341.60000610352</ele>
        <time>2013-01-05T09:09:38.000Z</time>
      </trkpt>
      <trkpt lat="43.64999" lon="5.65315">
        <ele>341</ele>
        <time>2013-01-05T09:09:49.000Z</time>
      </trkpt>
      <trkpt lat="43.64992" lon="5.65379">
        <ele>342.39999389648</ele>
        <time>2013-01-05T09:10:05.000Z</time>
      </trkpt>
      <trkpt lat="43.64977" lon="5.65437">
        <ele>343.79998779297</ele>
        <time>2013-01-05T09:10:22.000Z</time>
      </trkpt>
      <trkpt lat="43.64978" lon="5.65494">
        <ele>344.60000610352</ele>
        <time>2013-01-05T09:11:30.000Z</time>
      </trkpt>
      <trkpt lat="43.65001" lon="5.65557">
        <ele>345.39999389648</ele>
        <time>2013-01-05T09:11:40.000Z</time>
      </trkpt>
      <trkpt lat="43.65035" lon="5.65595">
        <ele>349.60000610352</ele>
        <time>2013-01-05T09:11:49.000Z</time>
      </trkpt>
      <trkpt lat="43.65036" lon="5.65651">
        <ele>348.79998779297</ele>
        <time>2013-01-05T09:12:02.000Z</time>
      </trkpt>
      <trkpt lat="43.65053" lon="5.65712">
        <ele>349.20001220703</ele>
        <time>2013-01-05T09:12:15.000Z</time>
      </trkpt>
      <trkpt lat="43.65079" lon="5.65764">
        <ele>350.60000610352</ele>
        <time>2013-01-05T09:12:25.000Z</time>
      </trkpt>
      <trkpt lat="43.65091" lon="5.65824">
        <ele>350.79998779297</ele>
        <time>2013-01-05T09:12:38.000Z</time>
      </trkpt>
      <trkpt lat="43.65118" lon="5.65875">
        <ele>353.60000610352</ele>
        <time>2013-01-05T09:12:58.000Z</time>
      </trkpt>
      <trkpt lat="43.65134" lon="5.65936">
        <ele>353.60000610352</ele>
        <time>2013-01-05T09:13:16.000Z</time>
      </trkpt>
      <trkpt lat="43.65159" lon="5.65994">
        <ele>351.20001220703</ele>
        <time>2013-01-05T09:13:32.000Z</time>
      </trkpt>
      <trkpt lat="43.65174" lon="5.66028">
        <ele>352.60000610352</ele>
        <time>2013-01-05T09:13:59.000Z</time>
      </trkpt>
      <trkpt lat="43.65193" lon="5.6608">
        <ele>355.20001220703</ele>
        <time>2013-01-05T09:14:23.000Z</time>
      </trkpt>
      <trkpt lat="43.65222" lon="5.66128">
        <ele>358</ele>
        <time>2013-01-05T09:14:41.000Z</time>
      </trkpt>
      <trkpt lat="43.65252" lon="5.6618">
        <ele>362.39999389648</ele>
        <time>2013-01-05T09:14:56.000Z</time>
      </trkpt>
      <trkpt lat="43.65269" lon="5.66242">
        <ele>365.20001220703</ele>
        <time>2013-01-05T09:15:09.000Z</time>
      </trkpt>
      <trkpt lat="43.65306" lon="5.66274">
        <ele>367</ele>
        <time>2013-01-05T09:15:21.000Z</time>
      </trkpt>
      <trkpt lat="43.6535" lon="5.6629">
        <ele>368</ele>
        <time>2013-01-05T09:15:46.000Z</time>
      </trkpt>
      <trkpt lat="43.65396" lon="5.66286">
        <ele>367</ele>
        <time>2013-01-05T09:15:55.000Z</time>
      </trkpt>
      <trkpt lat="43.65443" lon="5.66277">
        <ele>367.60000610352</ele>
        <time>2013-01-05T09:16:04.000Z</time>
      </trkpt>
      <trkpt lat="43.65488" lon="5.66287">
        <ele>370.60000610352</ele>
        <time>2013-01-05T09:16:17.000Z</time>
      </trkpt>
      <trkpt lat="43.65532" lon="5.66306">
        <ele>374</ele>
        <time>2013-01-05T09:16:30.000Z</time>
      </trkpt>
      <trkpt lat="43.65573" lon="5.66334">
        <ele>377.20001220703</ele>
        <time>2013-01-05T09:16:43.000Z</time>
      </trkpt>
      <trkpt lat="43.65607" lon="5.66377">
        <ele>379.20001220703</ele>
        <time>2013-01-05T09:19:20.000Z</time>
      </trkpt>
      <trkpt lat="43.65637" lon="5.66429">
        <ele>381.79998779297</ele>
        <time>2013-01-05T09:19:36.000Z</time>
      </trkpt>
      <trkpt lat="43.6567" lon="5.66471">
        <ele>384.60000610352</ele>
        <time>2013-01-05T09:19:48.000Z</time>
      </trkpt>
      <trkpt lat="43.65707" lon="5.66515">
        <ele>384.39999389648</ele>
        <time>2013-01-05T09:19:59.000Z</time>
      </trkpt>
      <trkpt lat="43.65742" lon="5.66559">
        <ele>383.79998779297</ele>
        <time>2013-01-05T09:20:10.000Z</time>
      </trkpt>
      <trkpt lat="43.65723" lon="5.66612">
        <ele>385.20001220703</ele>
        <time>2013-01-05T09:20:22.000Z</time>
      </trkpt>
      <trkpt lat="43.65764" lon="5.66652">
        <ele>383.79998779297</ele>
        <time>2013-01-05T09:20:32.000Z</time>
      </trkpt>
      <trkpt lat="43.65806" lon="5.66684">
        <ele>384.39999389648</ele>
        <time>2013-01-05T09:20:42.000Z</time>
      </trkpt>
      <trkpt lat="43.65841" lon="5.66665">
        <ele>384.39999389648</ele>
        <time>2013-01-05T09:20:56.000Z</time>
      </trkpt>
      <trkpt lat="43.65885" lon="5.66655">
        <ele>386.60000610352</ele>
        <time>2013-01-05T09:21:16.000Z</time>
      </trkpt>
      <trkpt lat="43.65922" lon="5.66684">
        <ele>390.60000610352</ele>
        <time>2013-01-05T09:21:34.000Z</time>
      </trkpt>
      <trkpt lat="43.65973" lon="5.66699">
        <ele>391.79998779297</ele>
        <time>2013-01-05T09:21:51.000Z</time>
      </trkpt>
      <trkpt lat="43.66008" lon="5.66747">
        <ele>395.39999389648</ele>
        <time>2013-01-05T09:22:08.000Z</time>
      </trkpt>
      <trkpt lat="43.66024" lon="5.66814">
        <ele>396.60000610352</ele>
        <time>2013-01-05T09:22:42.000Z</time>
      </trkpt>
      <trkpt lat="43.66059" lon="5.66863">
        <ele>397.79998779297</ele>
        <time>2013-01-05T09:22:55.000Z</time>
      </trkpt>
      <trkpt lat="43.66093" lon="5.66909">
        <ele>399</ele>
        <time>2013-01-05T09:23:12.000Z</time>
      </trkpt>
      <trkpt lat="43.66111" lon="5.66971">
        <ele>399.60000610352</ele>
        <time>2013-01-05T09:23:28.000Z</time>
      </trkpt>
      <trkpt lat="43.66115" lon="5.67037">
        <ele>400</ele>
        <time>2013-01-05T09:23:41.000Z</time>
      </trkpt>
      <trkpt lat="43.66134" lon="5.67101">
        <ele>400</ele>
        <time>2013-01-05T09:23:54.000Z</time>
      </trkpt>
      <trkpt lat="43.66166" lon="5.6715">
        <ele>400.60000610352</ele>
        <time>2013-01-05T09:24:06.000Z</time>
      </trkpt>
      <trkpt lat="43.66191" lon="5.67202">
        <ele>401.20001220703</ele>
        <time>2013-01-05T09:24:19.000Z</time>
      </trkpt>
      <trkpt lat="43.66202" lon="5.6726">
        <ele>402.60000610352</ele>
        <time>2013-01-05T09:24:35.000Z</time>
      </trkpt>
      <trkpt lat="43.66215" lon="5.67311">
        <ele>404.79998779297</ele>
        <time>2013-01-05T09:24:51.000Z</time>
      </trkpt>
      <trkpt lat="43.6624" lon="5.67362">
        <ele>407</ele>
        <time>2013-01-05T09:25:05.000Z</time>
      </trkpt>
      <trkpt lat="43.66261" lon="5.6742">
        <ele>409</ele>
        <time>2013-01-05T09:25:20.000Z</time>
      </trkpt>
      <trkpt lat="43.66294" lon="5.67442">
        <ele>409.20001220703</ele>
        <time>2013-01-05T09:25:38.000Z</time>
      </trkpt>
      <trkpt lat="43.66338" lon="5.67437">
        <ele>410</ele>
        <time>2013-01-05T09:25:56.000Z</time>
      </trkpt>
      <trkpt lat="43.66376" lon="5.67475">
        <ele>410.39999389648</ele>
        <time>2013-01-05T09:26:12.000Z</time>
      </trkpt>
      <trkpt lat="43.66379" lon="5.67538">
        <ele>410</ele>
        <time>2013-01-05T09:26:28.000Z</time>
      </trkpt>
      <trkpt lat="43.66386" lon="5.67603">
        <ele>409</ele>
        <time>2013-01-05T09:26:40.000Z</time>
      </trkpt>
      <trkpt lat="43.66381" lon="5.67662">
        <ele>407.60000610352</ele>
        <time>2013-01-05T09:26:51.000Z</time>
      </trkpt>
      <trkpt lat="43.66347" lon="5.6771">
        <ele>405.60000610352</ele>
        <time>2013-01-05T09:27:01.000Z</time>
      </trkpt>
      <trkpt lat="43.66309" lon="5.67743">
        <ele>403</ele>
        <time>2013-01-05T09:27:10.000Z</time>
      </trkpt>
      <trkpt lat="43.66275" lon="5.67783">
        <ele>400.79998779297</ele>
        <time>2013-01-05T09:27:25.000Z</time>
      </trkpt>
      <trkpt lat="43.66239" lon="5.67825">
        <ele>399.79998779297</ele>
        <time>2013-01-05T09:27:38.000Z</time>
      </trkpt>
      <trkpt lat="43.6621" lon="5.67875">
        <ele>399.79998779297</ele>
        <time>2013-01-05T09:27:52.000Z</time>
      </trkpt>
      <trkpt lat="43.66219" lon="5.67918">
        <ele>399.60000610352</ele>
        <time>2013-01-05T09:28:09.000Z</time>
      </trkpt>
      <trkpt lat="43.66255" lon="5.67958">
        <ele>400.39999389648</ele>
        <time>2013-01-05T09:28:21.000Z</time>
      </trkpt>
      <trkpt lat="43.66291" lon="5.68002">
        <ele>402</ele>
        <time>2013-01-05T09:28:33.000Z</time>
      </trkpt>
      <trkpt lat="43.66329" lon="5.68042">
        <ele>402.39999389648</ele>
        <time>2013-01-05T09:28:44.000Z</time>
      </trkpt>
      <trkpt lat="43.66356" lon="5.68085">
        <ele>404</ele>
        <time>2013-01-05T09:28:55.000Z</time>
      </trkpt>
      <trkpt lat="43.66334" lon="5.68145">
        <ele>405.20001220703</ele>
        <time>2013-01-05T09:29:08.000Z</time>
      </trkpt>
      <trkpt lat="43.66309" lon="5.68203">
        <ele>406.39999389648</ele>
        <time>2013-01-05T09:29:20.000Z</time>
      </trkpt>
      <trkpt lat="43.663" lon="5.68269">
        <ele>408.60000610352</ele>
        <time>2013-01-05T09:29:31.000Z</time>
      </trkpt>
      <trkpt lat="43.6631" lon="5.68332">
        <ele>410.79998779297</ele>
        <time>2013-01-05T09:29:44.000Z</time>
      </trkpt>
      <trkpt lat="43.66307" lon="5.68396">
        <ele>411.39999389648</ele>
        <time>2013-01-05T09:29:59.000Z</time>
      </trkpt>
      <trkpt lat="43.66295" lon="5.68458">
        <ele>411.39999389648</ele>
        <time>2013-01-05T09:30:13.000Z</time>
      </trkpt>
      <trkpt lat="43.66274" lon="5.68516">
        <ele>411.79998779297</ele>
        <time>2013-01-05T09:30:26.000Z</time>
      </trkpt>
      <trkpt lat="43.66253" lon="5.68577">
        <ele>413.60000610352</ele>
        <time>2013-01-05T09:30:39.000Z</time>
      </trkpt>
      <trkpt lat="43.66225" lon="5.68632">
        <ele>416.20001220703</ele>
        <time>2013-01-05T09:30:52.000Z</time>
      </trkpt>
      <trkpt lat="43.66201" lon="5.68683">
        <ele>417.20001220703</ele>
        <time>2013-01-05T09:31:07.000Z</time>
      </trkpt>
      <trkpt lat="43.66158" lon="5.68657">
        <ele>416.39999389648</ele>
        <time>2013-01-05T09:31:51.000Z</time>
      </trkpt>
      <trkpt lat="43.66114" lon="5.68634">
        <ele>418.39999389648</ele>
        <time>2013-01-05T09:32:04.000Z</time>
      </trkpt>
      <trkpt lat="43.66067" lon="5.68616">
        <ele>419.20001220703</ele>
        <time>2013-01-05T09:32:18.000Z</time>
      </trkpt>
      <trkpt lat="43.66023" lon="5.68596">
        <ele>418.39999389648</ele>
        <time>2013-01-05T09:32:28.000Z</time>
      </trkpt>
      <trkpt lat="43.65981" lon="5.68563">
        <ele>418</ele>
        <time>2013-01-05T09:32:40.000Z</time>
      </trkpt>
      <trkpt lat="43.65934" lon="5.6855">
        <ele>418.60000610352</ele>
        <time>2013-01-05T09:32:50.000Z</time>
      </trkpt>
      <trkpt lat="43.65888" lon="5.68535">
        <ele>418.39999389648</ele>
        <time>2013-01-05T09:32:59.000Z</time>
      </trkpt>
      <trkpt lat="43.6584" lon="5.68511">
        <ele>416.60000610352</ele>
        <time>2013-01-05T09:33:10.000Z</time>
      </trkpt>
      <trkpt lat="43.65796" lon="5.68485">
        <ele>415.79998779297</ele>
        <time>2013-01-05T09:33:19.000Z</time>
      </trkpt>
      <trkpt lat="43.65752" lon="5.68461">
        <ele>415</ele>
        <time>2013-01-05T09:33:30.000Z</time>
      </trkpt>
      <trkpt lat="43.65709" lon="5.68428">
        <ele>415.79998779297</ele>
        <time>2013-01-05T09:33:41.000Z</time>
      </trkpt>
      <trkpt lat="43.65671" lon="5.68389">
        <ele>417</ele>
        <time>2013-01-05T09:33:52.000Z</time>
      </trkpt>
      <trkpt lat="43.65631" lon="5.68379">
        <ele>416.79998779297</ele>
        <time>2013-01-05T09:34:09.000Z</time>
      </trkpt>
      <trkpt lat="43.65603" lon="5.68432">
        <ele>418.39999389648</ele>
        <time>2013-01-05T09:34:26.000Z</time>
      </trkpt>
      <trkpt lat="43.65584" lon="5.68491">
        <ele>420.60000610352</ele>
        <time>2013-01-05T09:34:42.000Z</time>
      </trkpt>
      <trkpt lat="43.65581" lon="5.68556">
        <ele>424.79998779297</ele>
        <time>2013-01-05T09:35:00.000Z</time>
      </trkpt>
      <trkpt lat="43.6559" lon="5.6862">
        <ele>427.20001220703</ele>
        <time>2013-01-05T09:35:16.000Z</time>
      </trkpt>
      <trkpt lat="43.65599" lon="5.68684">
        <ele>427.79998779297</ele>
        <time>2013-01-05T09:35:28.000Z</time>
      </trkpt>
      <trkpt lat="43.65599" lon="5.68746">
        <ele>428.39999389648</ele>
        <time>2013-01-05T09:35:39.000Z</time>
      </trkpt>
      <trkpt lat="43.65625" lon="5.68801">
        <ele>431.20001220703</ele>
        <time>2013-01-05T09:35:51.000Z</time>
      </trkpt>
      <trkpt lat="43.65658" lon="5.68847">
        <ele>433</ele>
        <time>2013-01-05T09:36:04.000Z</time>
      </trkpt>
      <trkpt lat="43.65686" lon="5.68897">
        <ele>433.60000610352</ele>
        <time>2013-01-05T09:36:17.000Z</time>
      </trkpt>
      <trkpt lat="43.65707" lon="5.68955">
        <ele>435.20001220703</ele>
        <time>2013-01-05T09:36:31.000Z</time>
      </trkpt>
      <trkpt lat="43.65741" lon="5.68997">
        <ele>435.39999389648</ele>
        <time>2013-01-05T09:36:44.000Z</time>
      </trkpt>
      <trkpt lat="43.65778" lon="5.69037">
        <ele>436</ele>
        <time>2013-01-05T09:36:58.000Z</time>
      </trkpt>
      <trkpt lat="43.65811" lon="5.69088">
        <ele>436.39999389648</ele>
        <time>2013-01-05T09:37:11.000Z</time>
      </trkpt>
      <trkpt lat="43.65844" lon="5.6914">
        <ele>434.79998779297</ele>
        <time>2013-01-05T09:37:22.000Z</time>
      </trkpt>
      <trkpt lat="43.6588" lon="5.69182">
        <ele>435.60000610352</ele>
        <time>2013-01-05T09:37:32.000Z</time>
      </trkpt>
      <trkpt lat="43.65917" lon="5.69219">
        <ele>436.20001220703</ele>
        <time>2013-01-05T09:37:43.000Z</time>
      </trkpt>
      <trkpt lat="43.65933" lon="5.69279">
        <ele>436.20001220703</ele>
        <time>2013-01-05T09:37:57.000Z</time>
      </trkpt>
      <trkpt lat="43.65956" lon="5.69333">
        <ele>437</ele>
        <time>2013-01-05T09:38:12.000Z</time>
      </trkpt>
      <trkpt lat="43.65933" lon="5.69384">
        <ele>439.60000610352</ele>
        <time>2013-01-05T09:38:29.000Z</time>
      </trkpt>
      <trkpt lat="43.65903" lon="5.69433">
        <ele>442.39999389648</ele>
        <time>2013-01-05T09:38:44.000Z</time>
      </trkpt>
      <trkpt lat="43.65879" lon="5.69487">
        <ele>444.39999389648</ele>
        <time>2013-01-05T09:38:59.000Z</time>
      </trkpt>
      <trkpt lat="43.65879" lon="5.69548">
        <ele>446.60000610352</ele>
        <time>2013-01-05T09:41:30.000Z</time>
      </trkpt>
      <trkpt lat="43.65871" lon="5.69609">
        <ele>449.20001220703</ele>
        <time>2013-01-05T09:41:52.000Z</time>
      </trkpt>
      <trkpt lat="43.65867" lon="5.69582">
        <ele>448</ele>
        <time>2013-01-05T09:43:27.000Z</time>
      </trkpt>
      <trkpt lat="43.65883" lon="5.69524">
        <ele>445.60000610352</ele>
        <time>2013-01-05T09:43:38.000Z</time>
      </trkpt>
      <trkpt lat="43.65888" lon="5.69462">
        <ele>443.60000610352</ele>
        <time>2013-01-05T09:43:49.000Z</time>
      </trkpt>
      <trkpt lat="43.65916" lon="5.6941">
        <ele>441.60000610352</ele>
        <time>2013-01-05T09:43:59.000Z</time>
      </trkpt>
      <trkpt lat="43.65946" lon="5.69362">
        <ele>438.20001220703</ele>
        <time>2013-01-05T09:44:10.000Z</time>
      </trkpt>
      <trkpt lat="43.65979" lon="5.69358">
        <ele>436.39999389648</ele>
        <time>2013-01-05T09:44:23.000Z</time>
      </trkpt>
      <trkpt lat="43.66012" lon="5.69404">
        <ele>435</ele>
        <time>2013-01-05T09:44:35.000Z</time>
      </trkpt>
      <trkpt lat="43.66045" lon="5.69457">
        <ele>434.39999389648</ele>
        <time>2013-01-05T09:44:44.000Z</time>
      </trkpt>
      <trkpt lat="43.66072" lon="5.69513">
        <ele>434.20001220703</ele>
        <time>2013-01-05T09:44:51.000Z</time>
      </trkpt>
      <trkpt lat="43.66102" lon="5.6956">
        <ele>435.20001220703</ele>
        <time>2013-01-05T09:44:58.000Z</time>
      </trkpt>
      <trkpt lat="43.66138" lon="5.69605">
        <ele>435.79998779297</ele>
        <time>2013-01-05T09:45:08.000Z</time>
      </trkpt>
      <trkpt lat="43.6618" lon="5.69637">
        <ele>434.39999389648</ele>
        <time>2013-01-05T09:45:20.000Z</time>
      </trkpt>
      <trkpt lat="43.66224" lon="5.69665">
        <ele>431.79998779297</ele>
        <time>2013-01-05T09:45:32.000Z</time>
      </trkpt>
      <trkpt lat="43.66267" lon="5.69689">
        <ele>429.60000610352</ele>
        <time>2013-01-05T09:45:39.000Z</time>
      </trkpt>
      <trkpt lat="43.66309" lon="5.69716">
        <ele>428.20001220703</ele>
        <time>2013-01-05T09:45:48.000Z</time>
      </trkpt>
      <trkpt lat="43.66347" lon="5.69757">
        <ele>426.60000610352</ele>
        <time>2013-01-05T09:45:58.000Z</time>
      </trkpt>
      <trkpt lat="43.66384" lon="5.69768">
        <ele>423.60000610352</ele>
        <time>2013-01-05T09:46:09.000Z</time>
      </trkpt>
      <trkpt lat="43.66428" lon="5.6974">
        <ele>421</ele>
        <time>2013-01-05T09:46:20.000Z</time>
      </trkpt>
      <trkpt lat="43.66471" lon="5.69748">
        <ele>419.20001220703</ele>
        <time>2013-01-05T09:46:30.000Z</time>
      </trkpt>
      <trkpt lat="43.66502" lon="5.69703">
        <ele>417.20001220703</ele>
        <time>2013-01-05T09:46:40.000Z</time>
      </trkpt>
      <trkpt lat="43.66525" lon="5.69647">
        <ele>415.79998779297</ele>
        <time>2013-01-05T09:46:52.000Z</time>
      </trkpt>
      <trkpt lat="43.66563" lon="5.69604">
        <ele>413.79998779297</ele>
        <time>2013-01-05T09:47:02.000Z</time>
      </trkpt>
      <trkpt lat="43.66606" lon="5.6957">
        <ele>412.39999389648</ele>
        <time>2013-01-05T09:47:11.000Z</time>
      </trkpt>
      <trkpt lat="43.66648" lon="5.69535">
        <ele>412</ele>
        <time>2013-01-05T09:47:21.000Z</time>
      </trkpt>
      <trkpt lat="43.6668" lon="5.69485">
        <ele>412</ele>
        <time>2013-01-05T09:47:32.000Z</time>
      </trkpt>
      <trkpt lat="43.66709" lon="5.69434">
        <ele>411.39999389648</ele>
        <time>2013-01-05T09:47:46.000Z</time>
      </trkpt>
      <trkpt lat="43.66732" lon="5.69377">
        <ele>412.20001220703</ele>
        <time>2013-01-05T09:47:58.000Z</time>
      </trkpt>
      <trkpt lat="43.6677" lon="5.69352">
        <ele>412</ele>
        <time>2013-01-05T09:48:10.000Z</time>
      </trkpt>
      <trkpt lat="43.66812" lon="5.69376">
        <ele>409.20001220703</ele>
        <time>2013-01-05T09:48:22.000Z</time>
      </trkpt>
      <trkpt lat="43.66854" lon="5.69414">
        <ele>403.79998779297</ele>
        <time>2013-01-05T09:48:31.000Z</time>
      </trkpt>
      <trkpt lat="43.66891" lon="5.69454">
        <ele>400.79998779297</ele>
        <time>2013-01-05T09:48:38.000Z</time>
      </trkpt>
      <trkpt lat="43.66933" lon="5.69482">
        <ele>398.60000610352</ele>
        <time>2013-01-05T09:48:45.000Z</time>
      </trkpt>
      <trkpt lat="43.66959" lon="5.69536">
        <ele>397.39999389648</ele>
        <time>2013-01-05T09:48:52.000Z</time>
      </trkpt>
      <trkpt lat="43.66986" lon="5.69588">
        <ele>396.60000610352</ele>
        <time>2013-01-05T09:49:02.000Z</time>
      </trkpt>
      <trkpt lat="43.66967" lon="5.69645">
        <ele>400</ele>
        <time>2013-01-05T09:49:15.000Z</time>
      </trkpt>
      <trkpt lat="43.66962" lon="5.69709">
        <ele>403.60000610352</ele>
        <time>2013-01-05T09:49:28.000Z</time>
      </trkpt>
      <trkpt lat="43.66966" lon="5.69775">
        <ele>407.79998779297</ele>
        <time>2013-01-05T09:49:42.000Z</time>
      </trkpt>
      <trkpt lat="43.66971" lon="5.69839">
        <ele>411.39999389648</ele>
        <time>2013-01-05T09:49:56.000Z</time>
      </trkpt>
      <trkpt lat="43.66998" lon="5.69885">
        <ele>414.60000610352</ele>
        <time>2013-01-05T09:50:14.000Z</time>
      </trkpt>
      <trkpt lat="43.67044" lon="5.6989">
        <ele>417.39999389648</ele>
        <time>2013-01-05T09:50:33.000Z</time>
      </trkpt>
      <trkpt lat="43.67092" lon="5.69906">
        <ele>419.79998779297</ele>
        <time>2013-01-05T09:50:49.000Z</time>
      </trkpt>
      <trkpt lat="43.67138" lon="5.69897">
        <ele>416.60000610352</ele>
        <time>2013-01-05T09:50:59.000Z</time>
      </trkpt>
      <trkpt lat="43.67184" lon="5.69908">
        <ele>414.79998779297</ele>
        <time>2013-01-05T09:51:10.000Z</time>
      </trkpt>
      <trkpt lat="43.67232" lon="5.69925">
        <ele>414.20001220703</ele>
        <time>2013-01-05T09:51:39.000Z</time>
      </trkpt>
      <trkpt lat="43.67277" lon="5.69947">
        <ele>416.20001220703</ele>
        <time>2013-01-05T09:51:53.000Z</time>
      </trkpt>
      <trkpt lat="43.67325" lon="5.6996">
        <ele>418.39999389648</ele>
        <time>2013-01-05T09:52:09.000Z</time>
      </trkpt>
      <trkpt lat="43.67372" lon="5.69978">
        <ele>419.60000610352</ele>
        <time>2013-01-05T09:52:25.000Z</time>
      </trkpt>
      <trkpt lat="43.67417" lon="5.69962">
        <ele>417.60000610352</ele>
        <time>2013-01-05T09:52:42.000Z</time>
      </trkpt>
      <trkpt lat="43.67461" lon="5.69953">
        <ele>415</ele>
        <time>2013-01-05T09:53:29.000Z</time>
      </trkpt>
      <trkpt lat="43.67485" lon="5.70007">
        <ele>415.60000610352</ele>
        <time>2013-01-05T09:53:41.000Z</time>
      </trkpt>
      <trkpt lat="43.67522" lon="5.70047">
        <ele>416.60000610352</ele>
        <time>2013-01-05T09:53:51.000Z</time>
      </trkpt>
      <trkpt lat="43.6756" lon="5.70084">
        <ele>415.60000610352</ele>
        <time>2013-01-05T09:54:01.000Z</time>
      </trkpt>
      <trkpt lat="43.67603" lon="5.70112">
        <ele>416.60000610352</ele>
        <time>2013-01-05T09:54:13.000Z</time>
      </trkpt>
      <trkpt lat="43.67644" lon="5.70097">
        <ele>414.20001220703</ele>
        <time>2013-01-05T09:54:27.000Z</time>
      </trkpt>
      <trkpt lat="43.67665" lon="5.70038">
        <ele>409.20001220703</ele>
        <time>2013-01-05T09:54:38.000Z</time>
      </trkpt>
      <trkpt lat="43.677" lon="5.69998">
        <ele>406.60000610352</ele>
        <time>2013-01-05T09:54:47.000Z</time>
      </trkpt>
      <trkpt lat="43.67749" lon="5.6998">
        <ele>406.39999389648</ele>
        <time>2013-01-05T09:54:55.000Z</time>
      </trkpt>
      <trkpt lat="43.67792" lon="5.69945">
        <ele>405</ele>
        <time>2013-01-05T09:55:03.000Z</time>
      </trkpt>
      <trkpt lat="43.6782" lon="5.6995">
        <ele>405.79998779297</ele>
        <time>2013-01-05T09:55:24.000Z</time>
      </trkpt>
      <trkpt lat="43.67846" lon="5.69993">
        <ele>408</ele>
        <time>2013-01-05T09:55:39.000Z</time>
      </trkpt>
      <trkpt lat="43.67822" lon="5.70046">
        <ele>412.20001220703</ele>
        <time>2013-01-05T09:59:16.000Z</time>
      </trkpt>
      <trkpt lat="43.67864" lon="5.70052">
        <ele>414.60000610352</ele>
        <time>2013-01-05T10:01:03.000Z</time>
      </trkpt>
      <trkpt lat="43.67885" lon="5.70103">
        <ele>421.79998779297</ele>
        <time>2013-01-05T10:01:25.000Z</time>
      </trkpt>
      <trkpt lat="43.67927" lon="5.70077">
        <ele>421.60000610352</ele>
        <time>2013-01-05T10:01:42.000Z</time>
      </trkpt>
      <trkpt lat="43.67959" lon="5.70061">
        <ele>421.79998779297</ele>
        <time>2013-01-05T10:02:52.000Z</time>
      </trkpt>
      <trkpt lat="43.67913" lon="5.70086">
        <ele>421.79998779297</ele>
        <time>2013-01-05T10:03:06.000Z</time>
      </trkpt>
      <trkpt lat="43.67874" lon="5.70121">
        <ele>423.20001220703</ele>
        <time>2013-01-05T10:03:19.000Z</time>
      </trkpt>
      <trkpt lat="43.67838" lon="5.70158">
        <ele>425</ele>
        <time>2013-01-05T10:03:37.000Z</time>
      </trkpt>
      <trkpt lat="43.67806" lon="5.70201">
        <ele>427.79998779297</ele>
        <time>2013-01-05T10:03:54.000Z</time>
      </trkpt>
      <trkpt lat="43.67784" lon="5.70257">
        <ele>431.39999389648</ele>
        <time>2013-01-05T10:04:12.000Z</time>
      </trkpt>
      <trkpt lat="43.67763" lon="5.70313">
        <ele>433.39999389648</ele>
        <time>2013-01-05T10:04:30.000Z</time>
      </trkpt>
      <trkpt lat="43.67768" lon="5.7034">
        <ele>434.39999389648</ele>
        <time>2013-01-05T10:05:02.000Z</time>
      </trkpt>
      <trkpt lat="43.67752" lon="5.704">
        <ele>430.60000610352</ele>
        <time>2013-01-05T10:05:18.000Z</time>
      </trkpt>
      <trkpt lat="43.67742" lon="5.70463">
        <ele>423.39999389648</ele>
        <time>2013-01-05T10:05:27.000Z</time>
      </trkpt>
      <trkpt lat="43.67715" lon="5.70507">
        <ele>422.39999389648</ele>
        <time>2013-01-05T10:05:37.000Z</time>
      </trkpt>
      <trkpt lat="43.67674" lon="5.70543">
        <ele>425.60000610352</ele>
        <time>2013-01-05T10:05:49.000Z</time>
      </trkpt>
      <trkpt lat="43.67648" lon="5.70596">
        <ele>426.60000610352</ele>
        <time>2013-01-05T10:05:58.000Z</time>
      </trkpt>
      <trkpt lat="43.67614" lon="5.70641">
        <ele>438</ele>
        <time>2013-01-05T10:06:13.000Z</time>
      </trkpt>
      <trkpt lat="43.67646" lon="5.70671">
        <ele>428.79998779297</ele>
        <time>2013-01-05T10:06:29.000Z</time>
      </trkpt>
      <trkpt lat="43.67689" lon="5.70699">
        <ele>420.60000610352</ele>
        <time>2013-01-05T10:06:43.000Z</time>
      </trkpt>
      <trkpt lat="43.67726" lon="5.70741">
        <ele>417.79998779297</ele>
        <time>2013-01-05T10:06:57.000Z</time>
      </trkpt>
      <trkpt lat="43.67704" lon="5.70781">
        <ele>424.60000610352</ele>
        <time>2013-01-05T10:07:12.000Z</time>
      </trkpt>
      <trkpt lat="43.67685" lon="5.70833">
        <ele>432.60000610352</ele>
        <time>2013-01-05T10:07:33.000Z</time>
      </trkpt>
      <trkpt lat="43.67694" lon="5.709">
        <ele>428.39999389648</ele>
        <time>2013-01-05T10:07:46.000Z</time>
      </trkpt>
      <trkpt lat="43.67686" lon="5.70967">
        <ele>428.20001220703</ele>
        <time>2013-01-05T10:07:59.000Z</time>
      </trkpt>
      <trkpt lat="43.67661" lon="5.71023">
        <ele>430.60000610352</ele>
        <time>2013-01-05T10:08:13.000Z</time>
      </trkpt>
      <trkpt lat="43.67628" lon="5.71075">
        <ele>423.60000610352</ele>
        <time>2013-01-05T10:08:32.000Z</time>
      </trkpt>
      <trkpt lat="43.67587" lon="5.71092">
        <ele>421.79998779297</ele>
        <time>2013-01-05T10:08:46.000Z</time>
      </trkpt>
      <trkpt lat="43.67561" lon="5.7104">
        <ele>429.60000610352</ele>
        <time>2013-01-05T10:08:58.000Z</time>
      </trkpt>
      <trkpt lat="43.67519" lon="5.7101">
        <ele>429.79998779297</ele>
        <time>2013-01-05T10:09:12.000Z</time>
      </trkpt>
      <trkpt lat="43.67477" lon="5.7098">
        <ele>438</ele>
        <time>2013-01-05T10:09:31.000Z</time>
      </trkpt>
      <trkpt lat="43.67429" lon="5.70965">
        <ele>448.39999389648</ele>
        <time>2013-01-05T10:10:00.000Z</time>
      </trkpt>
      <trkpt lat="43.67408" lon="5.71007">
        <ele>446.60000610352</ele>
        <time>2013-01-05T10:10:21.000Z</time>
      </trkpt>
      <trkpt lat="43.67429" lon="5.7107">
        <ele>439.79998779297</ele>
        <time>2013-01-05T10:10:41.000Z</time>
      </trkpt>
      <trkpt lat="43.67412" lon="5.71138">
        <ele>439.20001220703</ele>
        <time>2013-01-05T10:10:57.000Z</time>
      </trkpt>
      <trkpt lat="43.67394" lon="5.71197">
        <ele>441.20001220703</ele>
        <time>2013-01-05T10:11:10.000Z</time>
      </trkpt>
      <trkpt lat="43.67396" lon="5.71266">
        <ele>435.20001220703</ele>
        <time>2013-01-05T10:11:24.000Z</time>
      </trkpt>
      <trkpt lat="43.67405" lon="5.71334">
        <ele>429.60000610352</ele>
        <time>2013-01-05T10:11:36.000Z</time>
      </trkpt>
      <trkpt lat="43.67381" lon="5.71391">
        <ele>424.20001220703</ele>
        <time>2013-01-05T10:11:49.000Z</time>
      </trkpt>
      <trkpt lat="43.67343" lon="5.71432">
        <ele>419</ele>
        <time>2013-01-05T10:13:07.000Z</time>
      </trkpt>
      <trkpt lat="43.67308" lon="5.71465">
        <ele>419</ele>
        <time>2013-01-05T10:17:52.000Z</time>
      </trkpt>
      <trkpt lat="43.67281" lon="5.71515">
        <ele>417.20001220703</ele>
        <time>2013-01-05T10:18:15.000Z</time>
      </trkpt>
      <trkpt lat="43.67266" lon="5.71576">
        <ele>413.60000610352</ele>
        <time>2013-01-05T10:19:05.000Z</time>
      </trkpt>
      <trkpt lat="43.67228" lon="5.71621">
        <ele>416</ele>
        <time>2013-01-05T10:19:41.000Z</time>
      </trkpt>
      <trkpt lat="43.67182" lon="5.71632">
        <ele>419.39999389648</ele>
        <time>2013-01-05T10:20:23.000Z</time>
      </trkpt>
      <trkpt lat="43.67141" lon="5.71652">
        <ele>420</ele>
        <time>2013-01-05T10:20:58.000Z</time>
      </trkpt>
      <trkpt lat="43.67094" lon="5.7165">
        <ele>424</ele>
        <time>2013-01-05T10:21:38.000Z</time>
      </trkpt>
      <trkpt lat="43.67065" lon="5.71598">
        <ele>430.79998779297</ele>
        <time>2013-01-05T10:22:34.000Z</time>
      </trkpt>
      <trkpt lat="43.6704" lon="5.71545">
        <ele>441.20001220703</ele>
        <time>2013-01-05T10:23:02.000Z</time>
      </trkpt>
      <trkpt lat="43.66998" lon="5.71512">
        <ele>448.79998779297</ele>
        <time>2013-01-05T10:23:34.000Z</time>
      </trkpt>
      <trkpt lat="43.66965" lon="5.71465">
        <ele>453.20001220703</ele>
        <time>2013-01-05T10:24:00.000Z</time>
      </trkpt>
      <trkpt lat="43.66921" lon="5.71432">
        <ele>455</ele>
        <time>2013-01-05T10:24:28.000Z</time>
      </trkpt>
      <trkpt lat="43.66876" lon="5.71408">
        <ele>456.20001220703</ele>
        <time>2013-01-05T10:24:59.000Z</time>
      </trkpt>
      <trkpt lat="43.66842" lon="5.71362">
        <ele>457.60000610352</ele>
        <time>2013-01-05T10:25:18.000Z</time>
      </trkpt>
      <trkpt lat="43.66813" lon="5.71309">
        <ele>454.79998779297</ele>
        <time>2013-01-05T10:25:34.000Z</time>
      </trkpt>
      <trkpt lat="43.66787" lon="5.71256">
        <ele>454.20001220703</ele>
        <time>2013-01-05T10:25:49.000Z</time>
      </trkpt>
      <trkpt lat="43.66748" lon="5.71221">
        <ele>455</ele>
        <time>2013-01-05T10:26:04.000Z</time>
      </trkpt>
      <trkpt lat="43.66712" lon="5.71222">
        <ele>453.60000610352</ele>
        <time>2013-01-05T10:30:45.000Z</time>
      </trkpt>
      <trkpt lat="43.66684" lon="5.71267">
        <ele>449</ele>
        <time>2013-01-05T10:31:00.000Z</time>
      </trkpt>
      <trkpt lat="43.66642" lon="5.71295">
        <ele>446.20001220703</ele>
        <time>2013-01-05T10:31:10.000Z</time>
      </trkpt>
      <trkpt lat="43.66592" lon="5.71318">
        <ele>445.60000610352</ele>
        <time>2013-01-05T10:31:17.000Z</time>
      </trkpt>
      <trkpt lat="43.66544" lon="5.71345">
        <ele>447.39999389648</ele>
        <time>2013-01-05T10:31:24.000Z</time>
      </trkpt>
      <trkpt lat="43.66553" lon="5.71398">
        <ele>440.79998779297</ele>
        <time>2013-01-05T10:31:32.000Z</time>
      </trkpt>
      <trkpt lat="43.666" lon="5.7141">
        <ele>434.79998779297</ele>
        <time>2013-01-05T10:31:38.000Z</time>
      </trkpt>
      <trkpt lat="43.66646" lon="5.71416">
        <ele>429.20001220703</ele>
        <time>2013-01-05T10:31:45.000Z</time>
      </trkpt>
      <trkpt lat="43.66686" lon="5.71447">
        <ele>427.20001220703</ele>
        <time>2013-01-05T10:31:52.000Z</time>
      </trkpt>
      <trkpt lat="43.66705" lon="5.71511">
        <ele>425</ele>
        <time>2013-01-05T10:32:00.000Z</time>
      </trkpt>
      <trkpt lat="43.66734" lon="5.71559">
        <ele>421.20001220703</ele>
        <time>2013-01-05T10:32:10.000Z</time>
      </trkpt>
      <trkpt lat="43.66769" lon="5.71607">
        <ele>418.60000610352</ele>
        <time>2013-01-05T10:32:20.000Z</time>
      </trkpt>
      <trkpt lat="43.66808" lon="5.71642">
        <ele>412.39999389648</ele>
        <time>2013-01-05T10:32:35.000Z</time>
      </trkpt>
      <trkpt lat="43.66846" lon="5.71686">
        <ele>403.39999389648</ele>
        <time>2013-01-05T10:32:46.000Z</time>
      </trkpt>
      <trkpt lat="43.6686" lon="5.71745">
        <ele>400.39999389648</ele>
        <time>2013-01-05T10:32:59.000Z</time>
      </trkpt>
      <trkpt lat="43.66898" lon="5.71791">
        <ele>394.79998779297</ele>
        <time>2013-01-05T10:33:09.000Z</time>
      </trkpt>
      <trkpt lat="43.66938" lon="5.7183">
        <ele>388.60000610352</ele>
        <time>2013-01-05T10:33:16.000Z</time>
      </trkpt>
      <trkpt lat="43.66969" lon="5.71884">
        <ele>386.20001220703</ele>
        <time>2013-01-05T10:33:24.000Z</time>
      </trkpt>
      <trkpt lat="43.67012" lon="5.71913">
        <ele>377</ele>
        <time>2013-01-05T10:33:33.000Z</time>
      </trkpt>
      <trkpt lat="43.67058" lon="5.71926">
        <ele>374.79998779297</ele>
        <time>2013-01-05T10:33:43.000Z</time>
      </trkpt>
      <trkpt lat="43.67103" lon="5.71951">
        <ele>371.79998779297</ele>
        <time>2013-01-05T10:34:10.000Z</time>
      </trkpt>
      <trkpt lat="43.67116" lon="5.72012">
        <ele>363.39999389648</ele>
        <time>2013-01-05T10:34:30.000Z</time>
      </trkpt>
      <trkpt lat="43.67127" lon="5.72074">
        <ele>351.60000610352</ele>
        <time>2013-01-05T10:34:42.000Z</time>
      </trkpt>
      <trkpt lat="43.67131" lon="5.72135">
        <ele>344.39999389648</ele>
        <time>2013-01-05T10:34:53.000Z</time>
      </trkpt>
      <trkpt lat="43.67116" lon="5.72195">
        <ele>340</ele>
        <time>2013-01-05T10:35:05.000Z</time>
      </trkpt>
      <trkpt lat="43.6709" lon="5.72249">
        <ele>332.60000610352</ele>
        <time>2013-01-05T10:35:12.000Z</time>
      </trkpt>
      <trkpt lat="43.671" lon="5.72311">
        <ele>329.20001220703</ele>
        <time>2013-01-05T10:35:18.000Z</time>
      </trkpt>
      <trkpt lat="43.6712" lon="5.72372">
        <ele>329.79998779297</ele>
        <time>2013-01-05T10:35:25.000Z</time>
      </trkpt>
      <trkpt lat="43.67101" lon="5.72433">
        <ele>328.20001220703</ele>
        <time>2013-01-05T10:35:34.000Z</time>
      </trkpt>
      <trkpt lat="43.67129" lon="5.72485">
        <ele>328.20001220703</ele>
        <time>2013-01-05T10:35:42.000Z</time>
      </trkpt>
      <trkpt lat="43.67117" lon="5.72544">
        <ele>324</ele>
        <time>2013-01-05T10:35:52.000Z</time>
      </trkpt>
      <trkpt lat="43.67128" lon="5.72603">
        <ele>318</ele>
        <time>2013-01-05T10:36:02.000Z</time>
      </trkpt>
      <trkpt lat="43.67151" lon="5.72659">
        <ele>309.39999389648</ele>
        <time>2013-01-05T10:36:10.000Z</time>
      </trkpt>
      <trkpt lat="43.67193" lon="5.727">
        <ele>303</ele>
        <time>2013-01-05T10:36:17.000Z</time>
      </trkpt>
      <trkpt lat="43.67241" lon="5.72707">
        <ele>298</ele>
        <time>2013-01-05T10:36:25.000Z</time>
      </trkpt>
      <trkpt lat="43.67281" lon="5.72723">
        <ele>295.60000610352</ele>
        <time>2013-01-05T10:36:37.000Z</time>
      </trkpt>
      <trkpt lat="43.67314" lon="5.72764">
        <ele>291.39999389648</ele>
        <time>2013-01-05T10:36:46.000Z</time>
      </trkpt>
      <trkpt lat="43.67329" lon="5.72818">
        <ele>286.79998779297</ele>
        <time>2013-01-05T10:38:32.000Z</time>
      </trkpt>
      <trkpt lat="43.6735" lon="5.72873">
        <ele>285</ele>
        <time>2013-01-05T10:38:44.000Z</time>
      </trkpt>
      <trkpt lat="43.67388" lon="5.72922">
        <ele>282.60000610352</ele>
        <time>2013-01-05T10:38:53.000Z</time>
      </trkpt>
      <trkpt lat="43.67429" lon="5.72957">
        <ele>279.79998779297</ele>
        <time>2013-01-05T10:39:00.000Z</time>
      </trkpt>
      <trkpt lat="43.67468" lon="5.72989">
        <ele>278</ele>
        <time>2013-01-05T10:39:07.000Z</time>
      </trkpt>
      <trkpt lat="43.67448" lon="5.73042">
        <ele>277.20001220703</ele>
        <time>2013-01-05T10:39:18.000Z</time>
      </trkpt>
      <trkpt lat="43.6741" lon="5.73086">
        <ele>277.20001220703</ele>
        <time>2013-01-05T10:39:29.000Z</time>
      </trkpt>
      <trkpt lat="43.67376" lon="5.73135">
        <ele>276.79998779297</ele>
        <time>2013-01-05T10:39:40.000Z</time>
      </trkpt>
      <trkpt lat="43.67339" lon="5.73172">
        <ele>276.60000610352</ele>
        <time>2013-01-05T10:39:49.000Z</time>
      </trkpt>
      <trkpt lat="43.67313" lon="5.73228">
        <ele>275.20001220703</ele>
        <time>2013-01-05T10:39:58.000Z</time>
      </trkpt>
      <trkpt lat="43.67295" lon="5.73292">
        <ele>275.39999389648</ele>
        <time>2013-01-05T10:40:07.000Z</time>
      </trkpt>
      <trkpt lat="43.67268" lon="5.73348">
        <ele>277</ele>
        <time>2013-01-05T10:40:16.000Z</time>
      </trkpt>
      <trkpt lat="43.67238" lon="5.73396">
        <ele>276</ele>
        <time>2013-01-05T10:40:25.000Z</time>
      </trkpt>
      <trkpt lat="43.67206" lon="5.73443">
        <ele>277</ele>
        <time>2013-01-05T10:40:34.000Z</time>
      </trkpt>
      <trkpt lat="43.67163" lon="5.73473">
        <ele>279.39999389648</ele>
        <time>2013-01-05T10:40:46.000Z</time>
      </trkpt>
      <trkpt lat="43.6712" lon="5.73491">
        <ele>282.39999389648</ele>
        <time>2013-01-05T10:40:58.000Z</time>
      </trkpt>
      <trkpt lat="43.67083" lon="5.73528">
        <ele>283.79998779297</ele>
        <time>2013-01-05T10:41:12.000Z</time>
      </trkpt>
      <trkpt lat="43.67041" lon="5.73552">
        <ele>284.60000610352</ele>
        <time>2013-01-05T10:41:25.000Z</time>
      </trkpt>
      <trkpt lat="43.66999" lon="5.73576">
        <ele>286</ele>
        <time>2013-01-05T10:41:37.000Z</time>
      </trkpt>
      <trkpt lat="43.66954" lon="5.73598">
        <ele>287</ele>
        <time>2013-01-05T10:41:49.000Z</time>
      </trkpt>
      <trkpt lat="43.66908" lon="5.73618">
        <ele>287.39999389648</ele>
        <time>2013-01-05T10:42:01.000Z</time>
      </trkpt>
      <trkpt lat="43.66865" lon="5.73648">
        <ele>286.79998779297</ele>
        <time>2013-01-05T10:42:12.000Z</time>
      </trkpt>
      <trkpt lat="43.66824" lon="5.73667">
        <ele>287.20001220703</ele>
        <time>2013-01-05T10:42:25.000Z</time>
      </trkpt>
      <trkpt lat="43.66777" lon="5.73686">
        <ele>288.39999389648</ele>
        <time>2013-01-05T10:42:40.000Z</time>
      </trkpt>
      <trkpt lat="43.66732" lon="5.7371">
        <ele>289.60000610352</ele>
        <time>2013-01-05T10:42:51.000Z</time>
      </trkpt>
      <trkpt lat="43.66689" lon="5.7374">
        <ele>290.39999389648</ele>
        <time>2013-01-05T10:43:02.000Z</time>
      </trkpt>
      <trkpt lat="43.66646" lon="5.73773">
        <ele>292.60000610352</ele>
        <time>2013-01-05T10:43:14.000Z</time>
      </trkpt>
      <trkpt lat="43.66604" lon="5.73803">
        <ele>293.39999389648</ele>
        <time>2013-01-05T10:43:27.000Z</time>
      </trkpt>
      <trkpt lat="43.66562" lon="5.7383">
        <ele>293.60000610352</ele>
        <time>2013-01-05T10:43:40.000Z</time>
      </trkpt>
      <trkpt lat="43.6652" lon="5.73859">
        <ele>296.39999389648</ele>
        <time>2013-01-05T10:43:54.000Z</time>
      </trkpt>
      <trkpt lat="43.66477" lon="5.73877">
        <ele>298.20001220703</ele>
        <time>2013-01-05T10:44:06.000Z</time>
      </trkpt>
      <trkpt lat="43.66432" lon="5.73903">
        <ele>300.39999389648</ele>
        <time>2013-01-05T10:44:18.000Z</time>
      </trkpt>
      <trkpt lat="43.66385" lon="5.73923">
        <ele>301.79998779297</ele>
        <time>2013-01-05T10:44:31.000Z</time>
      </trkpt>
      <trkpt lat="43.66346" lon="5.73957">
        <ele>301.60000610352</ele>
        <time>2013-01-05T10:44:44.000Z</time>
      </trkpt>
      <trkpt lat="43.6631" lon="5.74001">
        <ele>301.20001220703</ele>
        <time>2013-01-05T10:44:57.000Z</time>
      </trkpt>
      <trkpt lat="43.66267" lon="5.74021">
        <ele>305.79998779297</ele>
        <time>2013-01-05T10:45:10.000Z</time>
      </trkpt>
      <trkpt lat="43.6622" lon="5.74018">
        <ele>307</ele>
        <time>2013-01-05T10:45:24.000Z</time>
      </trkpt>
      <trkpt lat="43.66174" lon="5.74021">
        <ele>308.60000610352</ele>
        <time>2013-01-05T10:45:37.000Z</time>
      </trkpt>
      <trkpt lat="43.66125" lon="5.74024">
        <ele>310.20001220703</ele>
        <time>2013-01-05T10:45:51.000Z</time>
      </trkpt>
      <trkpt lat="43.66078" lon="5.74026">
        <ele>311.60000610352</ele>
        <time>2013-01-05T10:46:04.000Z</time>
      </trkpt>
      <trkpt lat="43.66031" lon="5.74032">
        <ele>314</ele>
        <time>2013-01-05T10:46:17.000Z</time>
      </trkpt>
      <trkpt lat="43.65988" lon="5.74056">
        <ele>316.39999389648</ele>
        <time>2013-01-05T10:46:30.000Z</time>
      </trkpt>
      <trkpt lat="43.65943" lon="5.74071">
        <ele>317.39999389648</ele>
        <time>2013-01-05T10:46:44.000Z</time>
      </trkpt>
      <trkpt lat="43.65897" lon="5.74085">
        <ele>318.39999389648</ele>
        <time>2013-01-05T10:46:58.000Z</time>
      </trkpt>
      <trkpt lat="43.65863" lon="5.74123">
        <ele>322.39999389648</ele>
        <time>2013-01-05T10:47:12.000Z</time>
      </trkpt>
      <trkpt lat="43.65826" lon="5.7415">
        <ele>322.20001220703</ele>
        <time>2013-01-05T10:47:28.000Z</time>
      </trkpt>
      <trkpt lat="43.6579" lon="5.74107">
        <ele>325.60000610352</ele>
        <time>2013-01-05T10:47:43.000Z</time>
      </trkpt>
      <trkpt lat="43.65766" lon="5.74061">
        <ele>329.20001220703</ele>
        <time>2013-01-05T10:47:58.000Z</time>
      </trkpt>
      <trkpt lat="43.65729" lon="5.74025">
        <ele>333.79998779297</ele>
        <time>2013-01-05T10:48:13.000Z</time>
      </trkpt>
      <trkpt lat="43.65685" lon="5.74004">
        <ele>333.79998779297</ele>
        <time>2013-01-05T10:48:29.000Z</time>
      </trkpt>
      <trkpt lat="43.65643" lon="5.73981">
        <ele>335.60000610352</ele>
        <time>2013-01-05T10:48:45.000Z</time>
      </trkpt>
      <trkpt lat="43.65628" lon="5.73919">
        <ele>338</ele>
        <time>2013-01-05T10:49:00.000Z</time>
      </trkpt>
      <trkpt lat="43.6559" lon="5.73883">
        <ele>337</ele>
        <time>2013-01-05T10:49:14.000Z</time>
      </trkpt>
      <trkpt lat="43.65555" lon="5.73836">
        <ele>337.20001220703</ele>
        <time>2013-01-05T10:49:30.000Z</time>
      </trkpt>
      <trkpt lat="43.65539" lon="5.73779">
        <ele>341</ele>
        <time>2013-01-05T10:50:16.000Z</time>
      </trkpt>
      <trkpt lat="43.65554" lon="5.73722">
        <ele>344.79998779297</ele>
        <time>2013-01-05T10:50:32.000Z</time>
      </trkpt>
      <trkpt lat="43.65574" lon="5.7367">
        <ele>349.39999389648</ele>
        <time>2013-01-05T10:50:47.000Z</time>
      </trkpt>
      <trkpt lat="43.65548" lon="5.73619">
        <ele>351.60000610352</ele>
        <time>2013-01-05T10:51:03.000Z</time>
      </trkpt>
      <trkpt lat="43.65504" lon="5.73601">
        <ele>347.39999389648</ele>
        <time>2013-01-05T10:51:18.000Z</time>
      </trkpt>
      <trkpt lat="43.65473" lon="5.73556">
        <ele>352.20001220703</ele>
        <time>2013-01-05T10:51:32.000Z</time>
      </trkpt>
      <trkpt lat="43.65459" lon="5.73496">
        <ele>356.39999389648</ele>
        <time>2013-01-05T10:51:46.000Z</time>
      </trkpt>
      <trkpt lat="43.65453" lon="5.73435">
        <ele>358</ele>
        <time>2013-01-05T10:52:00.000Z</time>
      </trkpt>
      <trkpt lat="43.6547" lon="5.73378">
        <ele>361</ele>
        <time>2013-01-05T10:52:14.000Z</time>
      </trkpt>
      <trkpt lat="43.65467" lon="5.73319">
        <ele>365.20001220703</ele>
        <time>2013-01-05T10:52:30.000Z</time>
      </trkpt>
      <trkpt lat="43.65434" lon="5.73275">
        <ele>365.20001220703</ele>
        <time>2013-01-05T10:52:46.000Z</time>
      </trkpt>
      <trkpt lat="43.65397" lon="5.73238">
        <ele>370</ele>
        <time>2013-01-05T10:52:59.000Z</time>
      </trkpt>
      <trkpt lat="43.65407" lon="5.73182">
        <ele>370.39999389648</ele>
        <time>2013-01-05T10:53:14.000Z</time>
      </trkpt>
      <trkpt lat="43.65399" lon="5.73121">
        <ele>373</ele>
        <time>2013-01-05T10:53:35.000Z</time>
      </trkpt>
      <trkpt lat="43.65365" lon="5.73076">
        <ele>378</ele>
        <time>2013-01-05T10:53:55.000Z</time>
      </trkpt>
      <trkpt lat="43.65344" lon="5.73038">
        <ele>383.60000610352</ele>
        <time>2013-01-05T10:54:13.000Z</time>
      </trkpt>
      <trkpt lat="43.65391" lon="5.73045">
        <ele>380.20001220703</ele>
        <time>2013-01-05T10:54:31.000Z</time>
      </trkpt>
      <trkpt lat="43.65435" lon="5.73049">
        <ele>379.20001220703</ele>
        <time>2013-01-05T10:54:49.000Z</time>
      </trkpt>
      <trkpt lat="43.6548" lon="5.73029">
        <ele>384</ele>
        <time>2013-01-05T10:55:08.000Z</time>
      </trkpt>
      <trkpt lat="43.65525" lon="5.7305">
        <ele>382.60000610352</ele>
        <time>2013-01-05T10:55:26.000Z</time>
      </trkpt>
      <trkpt lat="43.65531" lon="5.72996">
        <ele>384.20001220703</ele>
        <time>2013-01-05T10:55:48.000Z</time>
      </trkpt>
      <trkpt lat="43.65497" lon="5.72961">
        <ele>390.79998779297</ele>
        <time>2013-01-05T10:56:11.000Z</time>
      </trkpt>
      <trkpt lat="43.65452" lon="5.72961">
        <ele>394</ele>
        <time>2013-01-05T10:56:40.000Z</time>
      </trkpt>
      <trkpt lat="43.65422" lon="5.72922">
        <ele>404</ele>
        <time>2013-01-05T10:57:11.000Z</time>
      </trkpt>
      <trkpt lat="43.654" lon="5.72868">
        <ele>407.60000610352</ele>
        <time>2013-01-05T10:57:37.000Z</time>
      </trkpt>
      <trkpt lat="43.6538" lon="5.72812">
        <ele>412</ele>
        <time>2013-01-05T10:57:58.000Z</time>
      </trkpt>
      <trkpt lat="43.65353" lon="5.72762">
        <ele>417.79998779297</ele>
        <time>2013-01-05T10:58:20.000Z</time>
      </trkpt>
      <trkpt lat="43.65332" lon="5.72703">
        <ele>425.60000610352</ele>
        <time>2013-01-05T10:58:44.000Z</time>
      </trkpt>
      <trkpt lat="43.65308" lon="5.72648">
        <ele>430.79998779297</ele>
        <time>2013-01-05T10:59:02.000Z</time>
      </trkpt>
      <trkpt lat="43.6528" lon="5.72596">
        <ele>432.60000610352</ele>
        <time>2013-01-05T10:59:18.000Z</time>
      </trkpt>
      <trkpt lat="43.65295" lon="5.72537">
        <ele>436.60000610352</ele>
        <time>2013-01-05T10:59:40.000Z</time>
      </trkpt>
      <trkpt lat="43.65317" lon="5.7248">
        <ele>440.39999389648</ele>
        <time>2013-01-05T11:00:05.000Z</time>
      </trkpt>
      <trkpt lat="43.65342" lon="5.72427">
        <ele>446.20001220703</ele>
        <time>2013-01-05T11:00:30.000Z</time>
      </trkpt>
      <trkpt lat="43.65367" lon="5.72372">
        <ele>453.39999389648</ele>
        <time>2013-01-05T11:00:57.000Z</time>
      </trkpt>
      <trkpt lat="43.65376" lon="5.72307">
        <ele>460.60000610352</ele>
        <time>2013-01-05T11:01:24.000Z</time>
      </trkpt>
      <trkpt lat="43.65379" lon="5.72241">
        <ele>468.39999389648</ele>
        <time>2013-01-05T11:01:52.000Z</time>
      </trkpt>
      <trkpt lat="43.65376" lon="5.72178">
        <ele>475.60000610352</ele>
        <time>2013-01-05T11:02:19.000Z</time>
      </trkpt>
      <trkpt lat="43.65376" lon="5.72114">
        <ele>482</ele>
        <time>2013-01-05T11:02:46.000Z</time>
      </trkpt>
      <trkpt lat="43.65402" lon="5.72065">
        <ele>483.60000610352</ele>
        <time>2013-01-05T11:03:08.000Z</time>
      </trkpt>
      <trkpt lat="43.65448" lon="5.72061">
        <ele>485</ele>
        <time>2013-01-05T11:03:28.000Z</time>
      </trkpt>
      <trkpt lat="43.65455" lon="5.72037">
        <ele>488.20001220703</ele>
        <time>2013-01-05T11:03:48.000Z</time>
      </trkpt>
      <trkpt lat="43.65422" lon="5.71996">
        <ele>491.20001220703</ele>
        <time>2013-01-05T11:04:12.000Z</time>
      </trkpt>
      <trkpt lat="43.65449" lon="5.71947">
        <ele>492.20001220703</ele>
        <time>2013-01-05T11:04:34.000Z</time>
      </trkpt>
      <trkpt lat="43.65461" lon="5.71886">
        <ele>489.79998779297</ele>
        <time>2013-01-05T11:09:01.000Z</time>
      </trkpt>
      <trkpt lat="43.65495" lon="5.71837">
        <ele>484.39999389648</ele>
        <time>2013-01-05T11:09:09.000Z</time>
      </trkpt>
      <trkpt lat="43.6553" lon="5.71795">
        <ele>481.39999389648</ele>
        <time>2013-01-05T11:09:17.000Z</time>
      </trkpt>
      <trkpt lat="43.65546" lon="5.7173">
        <ele>476.60000610352</ele>
        <time>2013-01-05T11:09:26.000Z</time>
      </trkpt>
      <trkpt lat="43.65552" lon="5.71668">
        <ele>471.79998779297</ele>
        <time>2013-01-05T11:09:32.000Z</time>
      </trkpt>
      <trkpt lat="43.65548" lon="5.716">
        <ele>466</ele>
        <time>2013-01-05T11:09:38.000Z</time>
      </trkpt>
      <trkpt lat="43.6557" lon="5.71535">
        <ele>461.20001220703</ele>
        <time>2013-01-05T11:09:44.000Z</time>
      </trkpt>
      <trkpt lat="43.65606" lon="5.71519">
        <ele>459.60000610352</ele>
        <time>2013-01-05T11:09:55.000Z</time>
      </trkpt>
      <trkpt lat="43.65645" lon="5.7149">
        <ele>457.20001220703</ele>
        <time>2013-01-05T11:10:11.000Z</time>
      </trkpt>
      <trkpt lat="43.65678" lon="5.71444">
        <ele>456</ele>
        <time>2013-01-05T11:10:26.000Z</time>
      </trkpt>
      <trkpt lat="43.65689" lon="5.71383">
        <ele>454.60000610352</ele>
        <time>2013-01-05T11:10:39.000Z</time>
      </trkpt>
      <trkpt lat="43.65699" lon="5.71318">
        <ele>453</ele>
        <time>2013-01-05T11:10:58.000Z</time>
      </trkpt>
      <trkpt lat="43.65716" lon="5.71257">
        <ele>452.20001220703</ele>
        <time>2013-01-05T11:11:13.000Z</time>
      </trkpt>
      <trkpt lat="43.65738" lon="5.71202">
        <ele>450</ele>
        <time>2013-01-05T11:11:25.000Z</time>
      </trkpt>
      <trkpt lat="43.65773" lon="5.71152">
        <ele>447.39999389648</ele>
        <time>2013-01-05T11:11:35.000Z</time>
      </trkpt>
      <trkpt lat="43.65809" lon="5.71118">
        <ele>445.39999389648</ele>
        <time>2013-01-05T11:11:46.000Z</time>
      </trkpt>
      <trkpt lat="43.65833" lon="5.71064">
        <ele>444</ele>
        <time>2013-01-05T11:12:13.000Z</time>
      </trkpt>
      <trkpt lat="43.65881" lon="5.71066">
        <ele>443.20001220703</ele>
        <time>2013-01-05T11:12:35.000Z</time>
      </trkpt>
      <trkpt lat="43.65928" lon="5.71048">
        <ele>443.20001220703</ele>
        <time>2013-01-05T11:12:59.000Z</time>
      </trkpt>
      <trkpt lat="43.65965" lon="5.71005">
        <ele>442.39999389648</ele>
        <time>2013-01-05T11:13:17.000Z</time>
      </trkpt>
      <trkpt lat="43.66008" lon="5.70969">
        <ele>441</ele>
        <time>2013-01-05T11:13:34.000Z</time>
      </trkpt>
      <trkpt lat="43.66051" lon="5.70947">
        <ele>439.20001220703</ele>
        <time>2013-01-05T11:13:44.000Z</time>
      </trkpt>
      <trkpt lat="43.66095" lon="5.7092">
        <ele>436.20001220703</ele>
        <time>2013-01-05T11:13:53.000Z</time>
      </trkpt>
      <trkpt lat="43.66134" lon="5.70888">
        <ele>434.20001220703</ele>
        <time>2013-01-05T11:14:03.000Z</time>
      </trkpt>
      <trkpt lat="43.66165" lon="5.70842">
        <ele>431.20001220703</ele>
        <time>2013-01-05T11:14:13.000Z</time>
      </trkpt>
      <trkpt lat="43.66201" lon="5.7081">
        <ele>430.20001220703</ele>
        <time>2013-01-05T11:14:26.000Z</time>
      </trkpt>
      <trkpt lat="43.66201" lon="5.70742">
        <ele>431</ele>
        <time>2013-01-05T11:14:43.000Z</time>
      </trkpt>
      <trkpt lat="43.66214" lon="5.7068">
        <ele>431.79998779297</ele>
        <time>2013-01-05T11:14:56.000Z</time>
      </trkpt>
      <trkpt lat="43.66232" lon="5.70619">
        <ele>432.39999389648</ele>
        <time>2013-01-05T11:15:09.000Z</time>
      </trkpt>
      <trkpt lat="43.6625" lon="5.7056">
        <ele>432</ele>
        <time>2013-01-05T11:15:22.000Z</time>
      </trkpt>
      <trkpt lat="43.66266" lon="5.705">
        <ele>432.60000610352</ele>
        <time>2013-01-05T11:15:35.000Z</time>
      </trkpt>
      <trkpt lat="43.66284" lon="5.70441">
        <ele>432.79998779297</ele>
        <time>2013-01-05T11:15:48.000Z</time>
      </trkpt>
      <trkpt lat="43.66303" lon="5.7038">
        <ele>432.39999389648</ele>
        <time>2013-01-05T11:16:00.000Z</time>
      </trkpt>
      <trkpt lat="43.66317" lon="5.70323">
        <ele>433.60000610352</ele>
        <time>2013-01-05T11:16:12.000Z</time>
      </trkpt>
      <trkpt lat="43.66332" lon="5.70265">
        <ele>434.39999389648</ele>
        <time>2013-01-05T11:16:28.000Z</time>
      </trkpt>
      <trkpt lat="43.6632" lon="5.70203">
        <ele>433.79998779297</ele>
        <time>2013-01-05T11:16:40.000Z</time>
      </trkpt>
      <trkpt lat="43.66288" lon="5.70154">
        <ele>432</ele>
        <time>2013-01-05T11:16:50.000Z</time>
      </trkpt>
      <trkpt lat="43.66253" lon="5.70105">
        <ele>428.79998779297</ele>
        <time>2013-01-05T11:16:58.000Z</time>
      </trkpt>
      <trkpt lat="43.66272" lon="5.70045">
        <ele>427.39999389648</ele>
        <time>2013-01-05T11:17:07.000Z</time>
      </trkpt>
      <trkpt lat="43.66288" lon="5.6998">
        <ele>426.79998779297</ele>
        <time>2013-01-05T11:17:16.000Z</time>
      </trkpt>
      <trkpt lat="43.66295" lon="5.69916">
        <ele>425.60000610352</ele>
        <time>2013-01-05T11:17:26.000Z</time>
      </trkpt>
      <trkpt lat="43.66282" lon="5.69859">
        <ele>428.60000610352</ele>
        <time>2013-01-05T11:17:38.000Z</time>
      </trkpt>
      <trkpt lat="43.66284" lon="5.69795">
        <ele>429.79998779297</ele>
        <time>2013-01-05T11:17:48.000Z</time>
      </trkpt>
      <trkpt lat="43.66295" lon="5.69732">
        <ele>429.60000610352</ele>
        <time>2013-01-05T11:17:59.000Z</time>
      </trkpt>
      <trkpt lat="43.6627" lon="5.69689">
        <ele>429.60000610352</ele>
        <time>2013-01-05T11:18:13.000Z</time>
      </trkpt>
      <trkpt lat="43.66224" lon="5.69666">
        <ele>431.79998779297</ele>
        <time>2013-01-05T11:18:27.000Z</time>
      </trkpt>
      <trkpt lat="43.66182" lon="5.6964">
        <ele>434.39999389648</ele>
        <time>2013-01-05T11:18:40.000Z</time>
      </trkpt>
      <trkpt lat="43.66142" lon="5.69608">
        <ele>435.60000610352</ele>
        <time>2013-01-05T11:18:51.000Z</time>
      </trkpt>
      <trkpt lat="43.66107" lon="5.69566">
        <ele>435.39999389648</ele>
        <time>2013-01-05T11:19:01.000Z</time>
      </trkpt>
      <trkpt lat="43.66074" lon="5.69523">
        <ele>434.60000610352</ele>
        <time>2013-01-05T11:19:11.000Z</time>
      </trkpt>
      <trkpt lat="43.66049" lon="5.69467">
        <ele>434.39999389648</ele>
        <time>2013-01-05T11:19:23.000Z</time>
      </trkpt>
      <trkpt lat="43.66022" lon="5.69417">
        <ele>434.60000610352</ele>
        <time>2013-01-05T11:19:35.000Z</time>
      </trkpt>
      <trkpt lat="43.65989" lon="5.69372">
        <ele>436</ele>
        <time>2013-01-05T11:19:47.000Z</time>
      </trkpt>
      <trkpt lat="43.65954" lon="5.69326">
        <ele>436.79998779297</ele>
        <time>2013-01-05T11:19:59.000Z</time>
      </trkpt>
      <trkpt lat="43.65929" lon="5.69273">
        <ele>436.20001220703</ele>
        <time>2013-01-05T11:20:09.000Z</time>
      </trkpt>
      <trkpt lat="43.65913" lon="5.69215">
        <ele>436.20001220703</ele>
        <time>2013-01-05T11:20:17.000Z</time>
      </trkpt>
      <trkpt lat="43.65874" lon="5.69176">
        <ele>435.39999389648</ele>
        <time>2013-01-05T11:20:24.000Z</time>
      </trkpt>
      <trkpt lat="43.65836" lon="5.69131">
        <ele>434.79998779297</ele>
        <time>2013-01-05T11:20:32.000Z</time>
      </trkpt>
      <trkpt lat="43.65807" lon="5.69083">
        <ele>436.60000610352</ele>
        <time>2013-01-05T11:20:40.000Z</time>
      </trkpt>
      <trkpt lat="43.65775" lon="5.69036">
        <ele>436</ele>
        <time>2013-01-05T11:20:49.000Z</time>
      </trkpt>
      <trkpt lat="43.65739" lon="5.68995">
        <ele>435.39999389648</ele>
        <time>2013-01-05T11:20:57.000Z</time>
      </trkpt>
      <trkpt lat="43.65705" lon="5.68952">
        <ele>435.20001220703</ele>
        <time>2013-01-05T11:21:05.000Z</time>
      </trkpt>
      <trkpt lat="43.65687" lon="5.68894">
        <ele>433.39999389648</ele>
        <time>2013-01-05T11:21:13.000Z</time>
      </trkpt>
      <trkpt lat="43.65653" lon="5.6884">
        <ele>432.79998779297</ele>
        <time>2013-01-05T11:21:21.000Z</time>
      </trkpt>
      <trkpt lat="43.65621" lon="5.68796">
        <ele>431</ele>
        <time>2013-01-05T11:21:28.000Z</time>
      </trkpt>
      <trkpt lat="43.65597" lon="5.68743">
        <ele>428.39999389648</ele>
        <time>2013-01-05T11:21:35.000Z</time>
      </trkpt>
      <trkpt lat="43.65599" lon="5.68684">
        <ele>427.79998779297</ele>
        <time>2013-01-05T11:21:43.000Z</time>
      </trkpt>
      <trkpt lat="43.65592" lon="5.6862">
        <ele>427</ele>
        <time>2013-01-05T11:21:53.000Z</time>
      </trkpt>
      <trkpt lat="43.65581" lon="5.68557">
        <ele>425</ele>
        <time>2013-01-05T11:22:04.000Z</time>
      </trkpt>
      <trkpt lat="43.65565" lon="5.68496">
        <ele>420.39999389648</ele>
        <time>2013-01-05T11:22:20.000Z</time>
      </trkpt>
      <trkpt lat="43.65538" lon="5.68439">
        <ele>418.79998779297</ele>
        <time>2013-01-05T11:22:28.000Z</time>
      </trkpt>
      <trkpt lat="43.65517" lon="5.68378">
        <ele>416.60000610352</ele>
        <time>2013-01-05T11:22:35.000Z</time>
      </trkpt>
      <trkpt lat="43.6551" lon="5.6831">
        <ele>413.39999389648</ele>
        <time>2013-01-05T11:22:43.000Z</time>
      </trkpt>
      <trkpt lat="43.65497" lon="5.68244">
        <ele>411.79998779297</ele>
        <time>2013-01-05T11:22:51.000Z</time>
      </trkpt>
      <trkpt lat="43.6548" lon="5.68185">
        <ele>410</ele>
        <time>2013-01-05T11:23:04.000Z</time>
      </trkpt>
      <trkpt lat="43.65455" lon="5.68124">
        <ele>407.39999389648</ele>
        <time>2013-01-05T11:23:13.000Z</time>
      </trkpt>
      <trkpt lat="43.65434" lon="5.68061">
        <ele>406.39999389648</ele>
        <time>2013-01-05T11:23:20.000Z</time>
      </trkpt>
      <trkpt lat="43.65416" lon="5.67999">
        <ele>405.79998779297</ele>
        <time>2013-01-05T11:23:28.000Z</time>
      </trkpt>
      <trkpt lat="43.65393" lon="5.67936">
        <ele>404.79998779297</ele>
        <time>2013-01-05T11:23:36.000Z</time>
      </trkpt>
      <trkpt lat="43.65362" lon="5.67891">
        <ele>404.20001220703</ele>
        <time>2013-01-05T11:23:51.000Z</time>
      </trkpt>
      <trkpt lat="43.6533" lon="5.67846">
        <ele>403.20001220703</ele>
        <time>2013-01-05T11:24:07.000Z</time>
      </trkpt>
      <trkpt lat="43.6529" lon="5.67812">
        <ele>403</ele>
        <time>2013-01-05T11:24:17.000Z</time>
      </trkpt>
      <trkpt lat="43.65261" lon="5.67762">
        <ele>401.79998779297</ele>
        <time>2013-01-05T11:24:27.000Z</time>
      </trkpt>
      <trkpt lat="43.6523" lon="5.67721">
        <ele>399.79998779297</ele>
        <time>2013-01-05T11:24:38.000Z</time>
      </trkpt>
      <trkpt lat="43.65183" lon="5.67711">
        <ele>396.79998779297</ele>
        <time>2013-01-05T11:24:51.000Z</time>
      </trkpt>
      <trkpt lat="43.65157" lon="5.67659">
        <ele>394.20001220703</ele>
        <time>2013-01-05T11:25:02.000Z</time>
      </trkpt>
      <trkpt lat="43.65138" lon="5.67598">
        <ele>391.20001220703</ele>
        <time>2013-01-05T11:25:10.000Z</time>
      </trkpt>
      <trkpt lat="43.65117" lon="5.67537">
        <ele>387.79998779297</ele>
        <time>2013-01-05T11:25:18.000Z</time>
      </trkpt>
      <trkpt lat="43.65092" lon="5.67478">
        <ele>385.39999389648</ele>
        <time>2013-01-05T11:25:26.000Z</time>
      </trkpt>
      <trkpt lat="43.65064" lon="5.6743">
        <ele>383.60000610352</ele>
        <time>2013-01-05T11:25:35.000Z</time>
      </trkpt>
      <trkpt lat="43.65027" lon="5.67382">
        <ele>380.39999389648</ele>
        <time>2013-01-05T11:25:43.000Z</time>
      </trkpt>
      <trkpt lat="43.65" lon="5.6733">
        <ele>377.79998779297</ele>
        <time>2013-01-05T11:25:51.000Z</time>
      </trkpt>
      <trkpt lat="43.64961" lon="5.67297">
        <ele>376</ele>
        <time>2013-01-05T11:26:01.000Z</time>
      </trkpt>
      <trkpt lat="43.64943" lon="5.67236">
        <ele>372.20001220703</ele>
        <time>2013-01-05T11:26:15.000Z</time>
      </trkpt>
      <trkpt lat="43.64922" lon="5.67177">
        <ele>370.39999389648</ele>
        <time>2013-01-05T11:26:26.000Z</time>
      </trkpt>
      <trkpt lat="43.64906" lon="5.67112">
        <ele>369.60000610352</ele>
        <time>2013-01-05T11:26:34.000Z</time>
      </trkpt>
      <trkpt lat="43.64892" lon="5.67049">
        <ele>368.20001220703</ele>
        <time>2013-01-05T11:26:42.000Z</time>
      </trkpt>
      <trkpt lat="43.64883" lon="5.66981">
        <ele>366.39999389648</ele>
        <time>2013-01-05T11:26:50.000Z</time>
      </trkpt>
      <trkpt lat="43.64863" lon="5.66917">
        <ele>365.20001220703</ele>
        <time>2013-01-05T11:26:57.000Z</time>
      </trkpt>
      <trkpt lat="43.64845" lon="5.66852">
        <ele>362</ele>
        <time>2013-01-05T11:27:04.000Z</time>
      </trkpt>
      <trkpt lat="43.64825" lon="5.66791">
        <ele>360</ele>
        <time>2013-01-05T11:27:11.000Z</time>
      </trkpt>
      <trkpt lat="43.64802" lon="5.6673">
        <ele>359.39999389648</ele>
        <time>2013-01-05T11:27:18.000Z</time>
      </trkpt>
      <trkpt lat="43.64783" lon="5.66669">
        <ele>358.60000610352</ele>
        <time>2013-01-05T11:27:25.000Z</time>
      </trkpt>
      <trkpt lat="43.64755" lon="5.66615">
        <ele>356.60000610352</ele>
        <time>2013-01-05T11:27:32.000Z</time>
      </trkpt>
      <trkpt lat="43.64723" lon="5.6656">
        <ele>354.39999389648</ele>
        <time>2013-01-05T11:27:39.000Z</time>
      </trkpt>
      <trkpt lat="43.64706" lon="5.66506">
        <ele>353</ele>
        <time>2013-01-05T11:27:54.000Z</time>
      </trkpt>
      <trkpt lat="43.6469" lon="5.66446">
        <ele>351.20001220703</ele>
        <time>2013-01-05T11:28:13.000Z</time>
      </trkpt>
      <trkpt lat="43.64668" lon="5.6639">
        <ele>349.60000610352</ele>
        <time>2013-01-05T11:28:29.000Z</time>
      </trkpt>
      <trkpt lat="43.64654" lon="5.66331">
        <ele>348.79998779297</ele>
        <time>2013-01-05T11:28:40.000Z</time>
      </trkpt>
      <trkpt lat="43.64653" lon="5.66265">
        <ele>349.79998779297</ele>
        <time>2013-01-05T11:28:52.000Z</time>
      </trkpt>
      <trkpt lat="43.64659" lon="5.662">
        <ele>350.60000610352</ele>
        <time>2013-01-05T11:29:04.000Z</time>
      </trkpt>
      <trkpt lat="43.64669" lon="5.66138">
        <ele>351.60000610352</ele>
        <time>2013-01-05T11:29:19.000Z</time>
      </trkpt>
      <trkpt lat="43.6467" lon="5.66074">
        <ele>353.20001220703</ele>
        <time>2013-01-05T11:29:33.000Z</time>
      </trkpt>
      <trkpt lat="43.64657" lon="5.66011">
        <ele>354.60000610352</ele>
        <time>2013-01-05T11:29:48.000Z</time>
      </trkpt>
      <trkpt lat="43.64631" lon="5.65956">
        <ele>354</ele>
        <time>2013-01-05T11:30:02.000Z</time>
      </trkpt>
      <trkpt lat="43.64608" lon="5.65929">
        <ele>353.79998779297</ele>
        <time>2013-01-05T11:30:32.000Z</time>
      </trkpt>
      <trkpt lat="43.64562" lon="5.65945">
        <ele>352</ele>
        <time>2013-01-05T11:31:05.000Z</time>
      </trkpt>
      <trkpt lat="43.64511" lon="5.65947">
        <ele>348</ele>
        <time>2013-01-05T11:31:12.000Z</time>
      </trkpt>
      <trkpt lat="43.64462" lon="5.65912">
        <ele>342.79998779297</ele>
        <time>2013-01-05T11:31:18.000Z</time>
      </trkpt>
      <trkpt lat="43.64417" lon="5.65879">
        <ele>340.20001220703</ele>
        <time>2013-01-05T11:31:23.000Z</time>
      </trkpt>
      <trkpt lat="43.64374" lon="5.65838">
        <ele>338.39999389648</ele>
        <time>2013-01-05T11:31:28.000Z</time>
      </trkpt>
      <trkpt lat="43.64329" lon="5.65839">
        <ele>332.20001220703</ele>
        <time>2013-01-05T11:31:33.000Z</time>
      </trkpt>
      <trkpt lat="43.64284" lon="5.65829">
        <ele>326.60000610352</ele>
        <time>2013-01-05T11:31:39.000Z</time>
      </trkpt>
      <trkpt lat="43.64246" lon="5.65795">
        <ele>325.60000610352</ele>
        <time>2013-01-05T11:31:44.000Z</time>
      </trkpt>
      <trkpt lat="43.64196" lon="5.6579">
        <ele>322</ele>
        <time>2013-01-05T11:31:49.000Z</time>
      </trkpt>
      <trkpt lat="43.64152" lon="5.6576">
        <ele>320</ele>
        <time>2013-01-05T11:31:54.000Z</time>
      </trkpt>
      <trkpt lat="43.64109" lon="5.65732">
        <ele>317.20001220703</ele>
        <time>2013-01-05T11:31:59.000Z</time>
      </trkpt>
      <trkpt lat="43.64067" lon="5.65703">
        <ele>315.39999389648</ele>
        <time>2013-01-05T11:32:04.000Z</time>
      </trkpt>
      <trkpt lat="43.64028" lon="5.65664">
        <ele>313.79998779297</ele>
        <time>2013-01-05T11:32:09.000Z</time>
      </trkpt>
      <trkpt lat="43.63988" lon="5.65622">
        <ele>312.60000610352</ele>
        <time>2013-01-05T11:32:14.000Z</time>
      </trkpt>
      <trkpt lat="43.63961" lon="5.65566">
        <ele>313.20001220703</ele>
        <time>2013-01-05T11:32:19.000Z</time>
      </trkpt>
      <trkpt lat="43.63929" lon="5.65519">
        <ele>309.60000610352</ele>
        <time>2013-01-05T11:32:24.000Z</time>
      </trkpt>
      <trkpt lat="43.63883" lon="5.65509">
        <ele>307.60000610352</ele>
        <time>2013-01-05T11:32:29.000Z</time>
      </trkpt>
      <trkpt lat="43.63833" lon="5.65483">
        <ele>305.39999389648</ele>
        <time>2013-01-05T11:32:35.000Z</time>
      </trkpt>
      <trkpt lat="43.63791" lon="5.65444">
        <ele>303.79998779297</ele>
        <time>2013-01-05T11:32:41.000Z</time>
      </trkpt>
      <trkpt lat="43.63769" lon="5.65389">
        <ele>302.20001220703</ele>
        <time>2013-01-05T11:32:47.000Z</time>
      </trkpt>
      <trkpt lat="43.63761" lon="5.65327">
        <ele>300.20001220703</ele>
        <time>2013-01-05T11:32:53.000Z</time>
      </trkpt>
      <trkpt lat="43.63723" lon="5.65282">
        <ele>300</ele>
        <time>2013-01-05T11:33:00.000Z</time>
      </trkpt>
      <trkpt lat="43.63703" lon="5.65222">
        <ele>300.20001220703</ele>
        <time>2013-01-05T11:33:05.000Z</time>
      </trkpt>
      <trkpt lat="43.63707" lon="5.65157">
        <ele>302.79998779297</ele>
        <time>2013-01-05T11:33:10.000Z</time>
      </trkpt>
      <trkpt lat="43.63705" lon="5.65086">
        <ele>297</ele>
        <time>2013-01-05T11:33:16.000Z</time>
      </trkpt>
      <trkpt lat="43.63684" lon="5.65029">
        <ele>291.79998779297</ele>
        <time>2013-01-05T11:33:22.000Z</time>
      </trkpt>
      <trkpt lat="43.63644" lon="5.64992">
        <ele>288.79998779297</ele>
        <time>2013-01-05T11:33:28.000Z</time>
      </trkpt>
      <trkpt lat="43.63633" lon="5.64926">
        <ele>290</ele>
        <time>2013-01-05T11:33:34.000Z</time>
      </trkpt>
      <trkpt lat="43.63593" lon="5.64891">
        <ele>284.79998779297</ele>
        <time>2013-01-05T11:33:40.000Z</time>
      </trkpt>
      <trkpt lat="43.63572" lon="5.64837">
        <ele>286</ele>
        <time>2013-01-05T11:33:46.000Z</time>
      </trkpt>
      <trkpt lat="43.6357" lon="5.64772">
        <ele>285.79998779297</ele>
        <time>2013-01-05T11:33:52.000Z</time>
      </trkpt>
      <trkpt lat="43.6356" lon="5.64708">
        <ele>286</ele>
        <time>2013-01-05T11:33:58.000Z</time>
      </trkpt>
      <trkpt lat="43.63554" lon="5.64644">
        <ele>285.39999389648</ele>
        <time>2013-01-05T11:34:04.000Z</time>
      </trkpt>
      <trkpt lat="43.63561" lon="5.64582">
        <ele>284.79998779297</ele>
        <time>2013-01-05T11:34:10.000Z</time>
      </trkpt>
      <trkpt lat="43.63591" lon="5.6452">
        <ele>280.60000610352</ele>
        <time>2013-01-05T11:34:17.000Z</time>
      </trkpt>
      <trkpt lat="43.63615" lon="5.64465">
        <ele>277.39999389648</ele>
        <time>2013-01-05T11:34:23.000Z</time>
      </trkpt>
      <trkpt lat="43.63654" lon="5.64436">
        <ele>275.79998779297</ele>
        <time>2013-01-05T11:34:29.000Z</time>
      </trkpt>
      <trkpt lat="43.63695" lon="5.64396">
        <ele>274.39999389648</ele>
        <time>2013-01-05T11:34:36.000Z</time>
      </trkpt>
      <trkpt lat="43.63706" lon="5.64332">
        <ele>273.60000610352</ele>
        <time>2013-01-05T11:34:44.000Z</time>
      </trkpt>
      <trkpt lat="43.6369" lon="5.64275">
        <ele>270.20001220703</ele>
        <time>2013-01-05T11:34:54.000Z</time>
      </trkpt>
      <trkpt lat="43.63692" lon="5.64218">
        <ele>270</ele>
        <time>2013-01-05T11:35:09.000Z</time>
      </trkpt>
      <trkpt lat="43.63702" lon="5.64157">
        <ele>271.39999389648</ele>
        <time>2013-01-05T11:35:21.000Z</time>
      </trkpt>
      <trkpt lat="43.63714" lon="5.64092">
        <ele>272.60000610352</ele>
        <time>2013-01-05T11:35:32.000Z</time>
      </trkpt>
      <trkpt lat="43.63718" lon="5.64025">
        <ele>273.20001220703</ele>
        <time>2013-01-05T11:35:42.000Z</time>
      </trkpt>
      <trkpt lat="43.63711" lon="5.63957">
        <ele>272.20001220703</ele>
        <time>2013-01-05T11:35:52.000Z</time>
      </trkpt>
      <trkpt lat="43.63704" lon="5.63894">
        <ele>271.60000610352</ele>
        <time>2013-01-05T11:36:02.000Z</time>
      </trkpt>
      <trkpt lat="43.63696" lon="5.63833">
        <ele>271</ele>
        <time>2013-01-05T11:36:13.000Z</time>
      </trkpt>
    </trkseg>
  </trk>
</gpx>